Wetterdaten: Samstag, 20.06.2015
Datum Zeit Temp. Aussen +5cm Feuchte Auss BlattFeu 1 Luftdruck Regen Sonnenschein Regendauer Solar Windben
20.06.2015 00:00 11,4 C 10,0 C 95 % 15 lf 1018,7 hPa 0,0 l/m 0 min 2 min 0 W/m 8,4 km/h (2 Bft)
20.06.2015 00:02 11,4 C 10,0 C 95 % 15 lf 1018,7 hPa 0,0 l/m 0 min 0 min 0 W/m 6,3 km/h (2 Bft)
20.06.2015 00:06 11,4 C 10,0 C 95 % 15 lf 1018,7 hPa 0,0 l/m 0 min 0 min 0 W/m 8,4 km/h (2 Bft)
20.06.2015 00:08 11,3 C 10,0 C 95 % 15 lf 1018,7 hPa 0,0 l/m 0 min 0 min 0 W/m 8,4 km/h (2 Bft)
20.06.2015 00:10 11,3 C 10,0 C 95 % 15 lf 1018,7 hPa 0,0 l/m 0 min 0 min 0 W/m 6,3 km/h (2 Bft)
20.06.2015 00:12 11,3 C 10,0 C 95 % 15 lf 1018,7 hPa 0,0 l/m 0 min 0 min 0 W/m 4,2 km/h (1 Bft)
20.06.2015 00:14 11,3 C 10,0 C 95 % 15 lf 1018,8 hPa 0,0 l/m 0 min 0 min 0 W/m 8,4 km/h (2 Bft)
20.06.2015 00:16 11,3 C 10,0 C 95 % 15 lf 1018,8 hPa 0,0 l/m 0 min 0 min 0 W/m 8,4 km/h (2 Bft)
20.06.2015 00:18 11,3 C 10,0 C 95 % 15 lf 1018,8 hPa 0,0 l/m 0 min 0 min 0 W/m 10,5 km/h (2 Bft)
20.06.2015 00:20 11,3 C 10,0 C 95 % 15 lf 1018,8 hPa 0,0 l/m 0 min 0 min 0 W/m 12,6 km/h (3 Bft)
20.06.2015 00:22 11,3 C 10,0 C 95 % 15 lf 1018,8 hPa 0,0 l/m 0 min 0 min 0 W/m 8,4 km/h (2 Bft)
20.06.2015 00:24 11,3 C 10,0 C 95 % 15 lf 1018,8 hPa 0,0 l/m 0 min 0 min 0 W/m 8,4 km/h (2 Bft)
20.06.2015 00:26 11,2 C 10,0 C 95 % 15 lf 1018,8 hPa 0,0 l/m 0 min 0 min 0 W/m 10,5 km/h (2 Bft)
20.06.2015 00:28 11,2 C 10,0 C 95 % 15 lf 1018,8 hPa 0,0 l/m 0 min 0 min 0 W/m 10,5 km/h (2 Bft)
20.06.2015 00:30 11,2 C 10,0 C 95 % 15 lf 1018,8 hPa 0,0 l/m 0 min 0 min 0 W/m 10,5 km/h (2 Bft)
20.06.2015 00:32 11,2 C 9,4 C 95 % 15 lf 1018,8 hPa 0,0 l/m 0 min 0 min 0 W/m 12,6 km/h (3 Bft)
20.06.2015 00:34 11,2 C 9,4 C 95 % 15 lf 1018,9 hPa 0,0 l/m 0 min 0 min 0 W/m 12,6 km/h (3 Bft)
20.06.2015 00:36 11,1 C 10,0 C 95 % 15 lf 1018,9 hPa 0,0 l/m 0 min 0 min 0 W/m 8,4 km/h (2 Bft)
20.06.2015 00:38 11,1 C 10,0 C 95 % 15 lf 1018,9 hPa 0,0 l/m 0 min 0 min 0 W/m 8,4 km/h (2 Bft)
20.06.2015 00:40 11,1 C 10,0 C 95 % 15 lf 1018,8 hPa 0,0 l/m 0 min 0 min 0 W/m 8,4 km/h (2 Bft)
20.06.2015 00:42 11,1 C 10,0 C 95 % 15 lf 1018,8 hPa 0,0 l/m 0 min 0 min 0 W/m 8,4 km/h (2 Bft)
20.06.2015 00:44 11,1 C 9,4 C 95 % 15 lf 1018,8 hPa 0,0 l/m 0 min 0 min 0 W/m 8,4 km/h (2 Bft)
20.06.2015 00:46 11,1 C 9,4 C 95 % 15 lf 1018,8 hPa 0,0 l/m 0 min 0 min 0 W/m 8,4 km/h (2 Bft)
20.06.2015 00:48 11,1 C 9,4 C 95 % 15 lf 1018,8 hPa 0,0 l/m 0 min 0 min 0 W/m 6,3 km/h (2 Bft)
20.06.2015 00:50 11,0 C 9,4 C 95 % 15 lf 1018,9 hPa 0,0 l/m 0 min 0 min 0 W/m 8,4 km/h (2 Bft)
20.06.2015 00:52 11,0 C 9,4 C 95 % 15 lf 1018,9 hPa 0,0 l/m 0 min 0 min 0 W/m 6,3 km/h (2 Bft)
20.06.2015 00:54 11,0 C 9,4 C 95 % 15 lf 1018,9 hPa 0,0 l/m 0 min 0 min 0 W/m 8,4 km/h (2 Bft)
20.06.2015 00:56 11,0 C 9,4 C 95 % 15 lf 1018,9 hPa 0,0 l/m 0 min 0 min 0 W/m 8,4 km/h (2 Bft)
20.06.2015 00:58 10,9 C 9,4 C 95 % 15 lf 1018,9 hPa 0,0 l/m 0 min 2 min 0 W/m 8,4 km/h (2 Bft)
20.06.2015 01:00 10,9 C 9,4 C 95 % 15 lf 1018,9 hPa 0,0 l/m 0 min 0 min 0 W/m 8,4 km/h (2 Bft)
20.06.2015 01:02 10,9 C 9,4 C 95 % 15 lf 1018,9 hPa 0,0 l/m 0 min 2 min 0 W/m 6,3 km/h (2 Bft)
20.06.2015 01:04 10,9 C 9,4 C 95 % 15 lf 1018,9 hPa 0,0 l/m 0 min 2 min 0 W/m 8,4 km/h (2 Bft)
20.06.2015 01:06 10,9 C 9,4 C 95 % 15 lf 1018,9 hPa 0,0 l/m 0 min 0 min 0 W/m 6,3 km/h (2 Bft)
20.06.2015 01:08 10,9 C 9,4 C 95 % 15 lf 1018,9 hPa 0,0 l/m 0 min 0 min 0 W/m 4,2 km/h (1 Bft)
20.06.2015 01:10 10,9 C 9,4 C 95 % 15 lf 1018,9 hPa 0,0 l/m 0 min 0 min 0 W/m 4,2 km/h (1 Bft)
20.06.2015 01:12 10,9 C 9,4 C 95 % 15 lf 1018,9 hPa 0,0 l/m 0 min 2 min 0 W/m 6,3 km/h (2 Bft)
20.06.2015 01:14 10,8 C 9,4 C 95 % 15 lf 1019,0 hPa 0,0 l/m 0 min 0 min 0 W/m 4,2 km/h (1 Bft)
20.06.2015 01:16 10,8 C 9,4 C 95 % 15 lf 1019,0 hPa 0,0 l/m 0 min 0 min 0 W/m 6,3 km/h (2 Bft)
20.06.2015 01:18 10,8 C 9,4 C 95 % 15 lf 1019,0 hPa 0,0 l/m 0 min 0 min 0 W/m 4,2 km/h (1 Bft)
20.06.2015 01:20 10,8 C 9,4 C 95 % 15 lf 1019,0 hPa 0,0 l/m 0 min 0 min 0 W/m 6,3 km/h (2 Bft)
20.06.2015 01:22 10,8 C 9,4 C 95 % 15 lf 1018,9 hPa 0,0 l/m 0 min 0 min 0 W/m 4,2 km/h (1 Bft)
20.06.2015 01:24 10,8 C 9,4 C 95 % 15 lf 1018,9 hPa 0,0 l/m 0 min 0 min 0 W/m 4,2 km/h (1 Bft)
20.06.2015 01:26 10,8 C 9,4 C 95 % 15 lf 1018,9 hPa 0,0 l/m 0 min 0 min 0 W/m 6,3 km/h (2 Bft)
20.06.2015 01:28 10,8 C 9,4 C 95 % 15 lf 1018,9 hPa 0,0 l/m 0 min 0 min 0 W/m 6,3 km/h (2 Bft)
20.06.2015 01:30 10,8 C 9,4 C 95 % 15 lf 1018,8 hPa 0,0 l/m 0 min 0 min 0 W/m 4,2 km/h (1 Bft)
20.06.2015 01:32 10,8 C 9,4 C 95 % 15 lf 1018,8 hPa 0,0 l/m 0 min 0 min 0 W/m 2,1 km/h (1 Bft)
20.06.2015 01:34 10,8 C 9,4 C 95 % 15 lf 1018,8 hPa 0,0 l/m 0 min 0 min 0 W/m 2,1 km/h (1 Bft)
20.06.2015 01:36 10,8 C 9,4 C 95 % 15 lf 1018,7 hPa 0,0 l/m 0 min 0 min 0 W/m 4,2 km/h (1 Bft)
20.06.2015 01:38 10,8 C 9,4 C 95 % 15 lf 1018,7 hPa 0,0 l/m 0 min 2 min 0 W/m 2,1 km/h (1 Bft)
20.06.2015 01:40 10,8 C 9,4 C 95 % 15 lf 1018,8 hPa 0,0 l/m 0 min 2 min 0 W/m 4,2 km/h (1 Bft)
20.06.2015 01:42 10,8 C 9,4 C 95 % 15 lf 1018,8 hPa 0,0 l/m 0 min 2 min 0 W/m 4,2 km/h (1 Bft)
20.06.2015 01:44 10,8 C 9,4 C 95 % 15 lf 1018,7 hPa 0,2 l/m 0 min 2 min 0 W/m 6,3 km/h (2 Bft)
20.06.2015 01:46 10,8 C 10,0 C 95 % 15 lf 1018,7 hPa 0,0 l/m 0 min 0 min 0 W/m 6,3 km/h (2 Bft)
20.06.2015 01:48 10,8 C 9,4 C 95 % 15 lf 1018,7 hPa 0,0 l/m 0 min 0 min 0 W/m 6,3 km/h (2 Bft)
20.06.2015 01:50 10,8 C 10,0 C 95 % 15 lf 1018,8 hPa 0,0 l/m 0 min 0 min 0 W/m 8,4 km/h (2 Bft)
20.06.2015 01:52 10,8 C 10,0 C 95 % 15 lf 1018,8 hPa 0,0 l/m 0 min 2 min 0 W/m 6,3 km/h (2 Bft)
20.06.2015 01:54 10,8 C 10,0 C 95 % 15 lf 1018,7 hPa 0,0 l/m 0 min 2 min 0 W/m 4,2 km/h (1 Bft)
20.06.2015 01:56 10,8 C 10,0 C 95 % 15 lf 1018,7 hPa 0,0 l/m 0 min 2 min 0 W/m 4,2 km/h (1 Bft)
20.06.2015 01:58 10,8 C 10,0 C 95 % 15 lf 1018,7 hPa 0,0 l/m 0 min 2 min 0 W/m 4,2 km/h (1 Bft)
20.06.2015 02:00 10,8 C 10,0 C 95 % 15 lf 1018,7 hPa 0,0 l/m 0 min 2 min 0 W/m 6,3 km/h (2 Bft)
20.06.2015 02:02 10,8 C 10,0 C 95 % 15 lf 1018,8 hPa 0,0 l/m 0 min 2 min 0 W/m 6,3 km/h (2 Bft)
20.06.2015 02:04 10,8 C 10,0 C 95 % 15 lf 1018,9 hPa 0,6 l/m 0 min 2 min 0 W/m 10,5 km/h (2 Bft)
20.06.2015 02:06 10,8 C 9,4 C 95 % 15 lf 1018,9 hPa 0,2 l/m 0 min 2 min 0 W/m 8,4 km/h (2 Bft)
20.06.2015 02:08 10,8 C 9,4 C 95 % 15 lf 1019,0 hPa 0,2 l/m 0 min 2 min 0 W/m 10,5 km/h (2 Bft)
20.06.2015 02:10 10,8 C 9,4 C 95 % 15 lf 1018,9 hPa 0,2 l/m 0 min 2 min 0 W/m 10,5 km/h (2 Bft)
20.06.2015 02:12 10,8 C 10,0 C 95 % 15 lf 1018,9 hPa 0,2 l/m 0 min 2 min 0 W/m 4,2 km/h (1 Bft)
20.06.2015 02:14 10,8 C 10,0 C 96 % 15 lf 1018,8 hPa 0,0 l/m 0 min 2 min 0 W/m 6,3 km/h (2 Bft)
20.06.2015 02:16 10,8 C 10,0 C 95 % 15 lf 1018,8 hPa 0,0 l/m 0 min 2 min 0 W/m 4,2 km/h (1 Bft)
20.06.2015 02:18 10,8 C 10,0 C 96 % 15 lf 1018,7 hPa 0,0 l/m 0 min 2 min 0 W/m 4,2 km/h (1 Bft)
20.06.2015 02:20 10,8 C 10,0 C 96 % 15 lf 1018,7 hPa 0,2 l/m 0 min 2 min 0 W/m 4,2 km/h (1 Bft)
20.06.2015 02:22 10,9 C 10,0 C 96 % 15 lf 1018,7 hPa 0,0 l/m 0 min 0 min 0 W/m 8,4 km/h (2 Bft)
20.06.2015 02:24 10,9 C 10,0 C 96 % 15 lf 1018,6 hPa 0,0 l/m 0 min 2 min 0 W/m 6,3 km/h (2 Bft)
20.06.2015 02:26 10,9 C 10,0 C 96 % 15 lf 1018,7 hPa 0,0 l/m 0 min 0 min 0 W/m 4,2 km/h (1 Bft)
20.06.2015 02:28 10,9 C 10,0 C 96 % 15 lf 1018,6 hPa 0,0 l/m 0 min 0 min 0 W/m 10,5 km/h (2 Bft)
20.06.2015 02:30 10,8 C 10,0 C 96 % 15 lf 1018,6 hPa 0,0 l/m 0 min 0 min 0 W/m 6,3 km/h (2 Bft)
20.06.2015 02:32 10,8 C 9,4 C 96 % 15 lf 1018,7 hPa 0,0 l/m 0 min 0 min 0 W/m 8,4 km/h (2 Bft)
20.06.2015 02:34 10,8 C 9,4 C 96 % 15 lf 1018,7 hPa 0,0 l/m 0 min 0 min 0 W/m 8,4 km/h (2 Bft)
20.06.2015 02:36 10,8 C 9,4 C 96 % 15 lf 1018,7 hPa 0,0 l/m 0 min 0 min 0 W/m 4,2 km/h (1 Bft)
20.06.2015 02:38 10,8 C 9,4 C 96 % 15 lf 1018,7 hPa 0,0 l/m 0 min 0 min 0 W/m 4,2 km/h (1 Bft)
20.06.2015 02:40 10,8 C 9,4 C 96 % 15 lf 1018,7 hPa 0,0 l/m 0 min 0 min 0 W/m 6,3 km/h (2 Bft)
20.06.2015 02:42 10,8 C 9,4 C 96 % 15 lf 1018,7 hPa 0,0 l/m 0 min 0 min 0 W/m 6,3 km/h (2 Bft)
20.06.2015 02:44 10,8 C 9,4 C 96 % 15 lf 1018,8 hPa 0,0 l/m 0 min 0 min 0 W/m 6,3 km/h (2 Bft)
20.06.2015 02:46 10,8 C 9,4 C 96 % 15 lf 1018,7 hPa 0,0 l/m 0 min 0 min 0 W/m 4,2 km/h (1 Bft)
20.06.2015 02:48 10,8 C 9,4 C 96 % 15 lf 1018,7 hPa 0,0 l/m 0 min 0 min 0 W/m 2,1 km/h (1 Bft)
20.06.2015 02:50 10,8 C 9,4 C 96 % 15 lf 1018,8 hPa 0,0 l/m 0 min 0 min 0 W/m 4,2 km/h (1 Bft)
20.06.2015 02:52 10,8 C 9,4 C 96 % 15 lf 1018,8 hPa 0,0 l/m 0 min 0 min 0 W/m 4,2 km/h (1 Bft)
20.06.2015 02:54 10,8 C 9,4 C 96 % 15 lf 1018,8 hPa 0,0 l/m 0 min 0 min 0 W/m 4,2 km/h (1 Bft)
20.06.2015 02:56 10,8 C 10,0 C 96 % 15 lf 1018,7 hPa 0,0 l/m 0 min 0 min 0 W/m 6,3 km/h (2 Bft)
20.06.2015 02:58 10,8 C 10,0 C 96 % 15 lf 1018,8 hPa 0,0 l/m 0 min 0 min 0 W/m 6,3 km/h (2 Bft)
20.06.2015 03:00 10,8 C 10,0 C 96 % 15 lf 1018,8 hPa 0,0 l/m 0 min 0 min 0 W/m 6,3 km/h (2 Bft)
20.06.2015 03:02 10,8 C 10,0 C 96 % 15 lf 1018,8 hPa 0,0 l/m 0 min 2 min 0 W/m 6,3 km/h (2 Bft)
20.06.2015 03:04 10,8 C 10,0 C 96 % 15 lf 1018,8 hPa 0,0 l/m 0 min 0 min 0 W/m 4,2 km/h (1 Bft)
20.06.2015 03:06 10,8 C 10,0 C 96 % 15 lf 1018,8 hPa 0,0 l/m 0 min 0 min 0 W/m 6,3 km/h (2 Bft)
20.06.2015 03:08 10,8 C 10,0 C 96 % 15 lf 1018,7 hPa 0,0 l/m 0 min 0 min 0 W/m 6,3 km/h (2 Bft)
20.06.2015 03:10 10,8 C 10,0 C 96 % 15 lf 1018,8 hPa 0,0 l/m 0 min 0 min 0 W/m 12,6 km/h (3 Bft)
20.06.2015 03:12 10,8 C 10,0 C 96 % 15 lf 1018,8 hPa 0,0 l/m 0 min 0 min 0 W/m 6,3 km/h (2 Bft)
20.06.2015 03:14 10,8 C 10,0 C 96 % 15 lf 1018,8 hPa 0,0 l/m 0 min 0 min 0 W/m 12,6 km/h (3 Bft)
20.06.2015 03:16 10,8 C 9,4 C 96 % 15 lf 1018,8 hPa 0,0 l/m 0 min 0 min 0 W/m 6,3 km/h (2 Bft)
20.06.2015 03:18 10,8 C 9,4 C 96 % 15 lf 1018,7 hPa 0,0 l/m 0 min 0 min 0 W/m 12,6 km/h (3 Bft)
20.06.2015 03:20 10,8 C 9,4 C 96 % 15 lf 1018,7 hPa 0,0 l/m 0 min 0 min 0 W/m 8,4 km/h (2 Bft)
20.06.2015 03:22 10,8 C 9,4 C 96 % 15 lf 1018,7 hPa 0,0 l/m 0 min 0 min 0 W/m 6,3 km/h (2 Bft)
20.06.2015 03:24 10,8 C 9,4 C 96 % 15 lf 1018,7 hPa 0,0 l/m 0 min 0 min 0 W/m 8,4 km/h (2 Bft)
20.06.2015 03:26 10,8 C 9,4 C 96 % 15 lf 1018,7 hPa 0,0 l/m 0 min 0 min 0 W/m 6,3 km/h (2 Bft)
20.06.2015 03:28 10,8 C 9,4 C 96 % 15 lf 1018,7 hPa 0,0 l/m 0 min 0 min 0 W/m 8,4 km/h (2 Bft)
20.06.2015 03:30 10,7 C 9,4 C 96 % 15 lf 1018,7 hPa 0,0 l/m 0 min 0 min 0 W/m 10,5 km/h (2 Bft)
20.06.2015 03:32 10,7 C 9,4 C 96 % 15 lf 1018,7 hPa 0,0 l/m 0 min 0 min 0 W/m 10,5 km/h (2 Bft)
20.06.2015 03:34 10,7 C 9,4 C 96 % 15 lf 1018,7 hPa 0,0 l/m 0 min 0 min 0 W/m 6,3 km/h (2 Bft)
20.06.2015 03:36 10,6 C 9,4 C 96 % 15 lf 1018,8 hPa 0,0 l/m 0 min 0 min 0 W/m 10,5 km/h (2 Bft)
20.06.2015 03:38 10,6 C 9,4 C 96 % 15 lf 1018,8 hPa 0,0 l/m 0 min 0 min 0 W/m 6,3 km/h (2 Bft)
20.06.2015 03:40 10,6 C 9,4 C 96 % 15 lf 1018,8 hPa 0,0 l/m 0 min 0 min 0 W/m 6,3 km/h (2 Bft)
20.06.2015 03:42 10,5 C 8,9 C 96 % 15 lf 1018,8 hPa 0,0 l/m 0 min 0 min 0 W/m 8,4 km/h (2 Bft)
20.06.2015 03:44 10,5 C 8,9 C 96 % 15 lf 1018,8 hPa 0,0 l/m 0 min 2 min 0 W/m 12,6 km/h (3 Bft)
20.06.2015 03:46 10,4 C 8,9 C 96 % 15 lf 1018,8 hPa 0,0 l/m 0 min 2 min 0 W/m 8,4 km/h (2 Bft)
20.06.2015 03:48 10,4 C 8,9 C 96 % 15 lf 1018,8 hPa 0,0 l/m 0 min 2 min 0 W/m 12,6 km/h (3 Bft)
20.06.2015 03:50 10,4 C 8,9 C 96 % 15 lf 1018,8 hPa 0,0 l/m 0 min 2 min 0 W/m 10,5 km/h (2 Bft)
20.06.2015 03:52 10,3 C 8,9 C 96 % 15 lf 1018,8 hPa 0,0 l/m 0 min 2 min 0 W/m 10,5 km/h (2 Bft)
20.06.2015 03:54 10,3 C 8,9 C 96 % 15 lf 1018,8 hPa 0,0 l/m 0 min 2 min 0 W/m 12,6 km/h (3 Bft)
20.06.2015 03:56 10,3 C 8,9 C 96 % 15 lf 1018,8 hPa 0,0 l/m 0 min 2 min 0 W/m 6,3 km/h (2 Bft)
20.06.2015 03:58 10,3 C 8,9 C 96 % 15 lf 1018,8 hPa 0,0 l/m 0 min 2 min 0 W/m 14,6 km/h (3 Bft)
20.06.2015 04:00 10,2 C 8,9 C 96 % 15 lf 1018,8 hPa 0,0 l/m 0 min 2 min 0 W/m 12,6 km/h (3 Bft)
20.06.2015 04:02 10,2 C 8,9 C 96 % 15 lf 1018,8 hPa 0,0 l/m 0 min 2 min 0 W/m 8,4 km/h (2 Bft)
20.06.2015 04:04 10,2 C 8,9 C 96 % 15 lf 1018,9 hPa 0,0 l/m 0 min 0 min 0 W/m 16,7 km/h (3 Bft)
20.06.2015 04:06 10,2 C 8,9 C 96 % 15 lf 1018,9 hPa 0,0 l/m 0 min 0 min 0 W/m 10,5 km/h (2 Bft)
20.06.2015 04:08 10,2 C 8,9 C 96 % 15 lf 1018,8 hPa 0,0 l/m 0 min 2 min 0 W/m 12,6 km/h (3 Bft)
20.06.2015 04:10 10,1 C 8,9 C 96 % 15 lf 1018,8 hPa 0,0 l/m 0 min 2 min 0 W/m 10,5 km/h (2 Bft)
20.06.2015 04:12 10,1 C 8,9 C 96 % 15 lf 1018,8 hPa 0,0 l/m 0 min 2 min 0 W/m 12,6 km/h (3 Bft)
20.06.2015 04:14 10,1 C 8,9 C 96 % 15 lf 1018,8 hPa 0,0 l/m 0 min 0 min 0 W/m 10,5 km/h (2 Bft)
20.06.2015 04:16 10,1 C 8,9 C 96 % 15 lf 1018,8 hPa 0,0 l/m 0 min 0 min 0 W/m 8,4 km/h (2 Bft)
20.06.2015 04:18 10,1 C 8,9 C 96 % 15 lf 1018,8 hPa 0,0 l/m 0 min 0 min 0 W/m 8,4 km/h (2 Bft)
20.06.2015 04:20 10,1 C 8,9 C 96 % 15 lf 1018,8 hPa 0,0 l/m 0 min 0 min 0 W/m 6,3 km/h (2 Bft)
20.06.2015 04:22 10,0 C 8,9 C 96 % 15 lf 1018,8 hPa 0,0 l/m 0 min 0 min 0 W/m 4,2 km/h (1 Bft)
20.06.2015 04:24 10,0 C 8,9 C 96 % 15 lf 1018,8 hPa 0,0 l/m 0 min 0 min 0 W/m 6,3 km/h (2 Bft)
20.06.2015 04:26 10,0 C 8,9 C 96 % 15 lf 1018,8 hPa 0,0 l/m 0 min 0 min 0 W/m 8,4 km/h (2 Bft)
20.06.2015 04:28 10,0 C 8,9 C 96 % 15 lf 1018,7 hPa 0,0 l/m 0 min 0 min 0 W/m 6,3 km/h (2 Bft)
20.06.2015 04:30 10,0 C 8,9 C 96 % 15 lf 1018,7 hPa 0,0 l/m 0 min 0 min 0 W/m 4,2 km/h (1 Bft)
20.06.2015 04:32 10,0 C 8,9 C 96 % 15 lf 1018,7 hPa 0,0 l/m 0 min 0 min 0 W/m 2,1 km/h (1 Bft)
20.06.2015 04:34 10,0 C 8,9 C 96 % 15 lf 1018,8 hPa 0,0 l/m 0 min 0 min 0 W/m 4,2 km/h (1 Bft)
20.06.2015 04:36 9,9 C 8,9 C 96 % 15 lf 1018,8 hPa 0,0 l/m 0 min 0 min 0 W/m 4,2 km/h (1 Bft)
20.06.2015 04:38 9,9 C 8,9 C 96 % 15 lf 1018,8 hPa 0,0 l/m 0 min 0 min 0 W/m 6,3 km/h (2 Bft)
20.06.2015 04:40 9,9 C 8,9 C 96 % 15 lf 1018,8 hPa 0,0 l/m 0 min 0 min 0 W/m 6,3 km/h (2 Bft)
20.06.2015 04:42 9,9 C 8,9 C 96 % 15 lf 1018,8 hPa 0,0 l/m 0 min 0 min 0 W/m 6,3 km/h (2 Bft)
20.06.2015 04:44 9,9 C 8,9 C 96 % 15 lf 1018,8 hPa 0,0 l/m 0 min 0 min 0 W/m 8,4 km/h (2 Bft)
20.06.2015 04:46 9,9 C 8,9 C 96 % 15 lf 1018,8 hPa 0,0 l/m 0 min 0 min 0 W/m 6,3 km/h (2 Bft)
20.06.2015 04:48 9,9 C 8,9 C 96 % 15 lf 1018,8 hPa 0,0 l/m 0 min 0 min 0 W/m 8,4 km/h (2 Bft)
20.06.2015 04:50 9,9 C 8,9 C 96 % 15 lf 1018,8 hPa 0,0 l/m 0 min 0 min 0 W/m 4,2 km/h (1 Bft)
20.06.2015 04:52 9,9 C 8,9 C 96 % 15 lf 1018,8 hPa 0,0 l/m 0 min 0 min 0 W/m 4,2 km/h (1 Bft)
20.06.2015 04:54 9,9 C 8,9 C 96 % 15 lf 1018,9 hPa 0,0 l/m 0 min 0 min 0 W/m 6,3 km/h (2 Bft)
20.06.2015 04:56 9,9 C 8,9 C 96 % 15 lf 1018,9 hPa 0,0 l/m 0 min 0 min 0 W/m 10,5 km/h (2 Bft)
20.06.2015 04:58 9,9 C 8,9 C 96 % 15 lf 1018,9 hPa 0,0 l/m 0 min 0 min 0 W/m 10,5 km/h (2 Bft)
20.06.2015 05:00 9,9 C 8,9 C 96 % 15 lf 1018,9 hPa 0,0 l/m 0 min 0 min 0 W/m 8,4 km/h (2 Bft)
20.06.2015 05:02 9,9 C 8,9 C 96 % 15 lf 1018,9 hPa 0,0 l/m 0 min 0 min 0 W/m 6,3 km/h (2 Bft)
20.06.2015 05:04 9,9 C 8,9 C 96 % 15 lf 1019,0 hPa 0,0 l/m 0 min 0 min 0 W/m 6,3 km/h (2 Bft)
20.06.2015 05:06 9,9 C 8,9 C 96 % 15 lf 1019,0 hPa 0,0 l/m 0 min 0 min 0 W/m 8,4 km/h (2 Bft)
20.06.2015 05:08 9,9 C 8,9 C 96 % 15 lf 1019,0 hPa 0,0 l/m 0 min 0 min 0 W/m 4,2 km/h (1 Bft)
20.06.2015 05:10 9,9 C 8,9 C 96 % 15 lf 1018,9 hPa 0,0 l/m 0 min 0 min 0 W/m 6,3 km/h (2 Bft)
20.06.2015 05:12 9,9 C 8,9 C 96 % 15 lf 1019,0 hPa 0,0 l/m 0 min 0 min 0 W/m 4,2 km/h (1 Bft)
20.06.2015 05:14 9,9 C 8,9 C 96 % 15 lf 1019,0 hPa 0,0 l/m 0 min 0 min 0 W/m 4,2 km/h (1 Bft)
20.06.2015 05:16 9,9 C 8,9 C 96 % 15 lf 1019,0 hPa 0,0 l/m 0 min 0 min 0 W/m 6,3 km/h (2 Bft)
20.06.2015 05:18 10,0 C 8,9 C 96 % 15 lf 1019,0 hPa 0,0 l/m 0 min 0 min 0 W/m 6,3 km/h (2 Bft)
20.06.2015 05:20 10,0 C 8,9 C 96 % 15 lf 1019,0 hPa 0,0 l/m 0 min 0 min 0 W/m 8,4 km/h (2 Bft)
20.06.2015 05:22 10,0 C 9,4 C 96 % 15 lf 1018,9 hPa 0,0 l/m 0 min 0 min 0 W/m 10,5 km/h (2 Bft)
20.06.2015 05:24 10,0 C 9,4 C 96 % 15 lf 1018,9 hPa 0,0 l/m 0 min 0 min 0 W/m 10,5 km/h (2 Bft)
20.06.2015 05:26 10,0 C 9,4 C 96 % 15 lf 1018,9 hPa 0,0 l/m 0 min 0 min 0 W/m 10,5 km/h (2 Bft)
20.06.2015 05:28 10,0 C 9,4 C 96 % 15 lf 1018,9 hPa 0,0 l/m 0 min 0 min 1 W/m 8,4 km/h (2 Bft)
20.06.2015 05:30 10,0 C 8,9 C 96 % 15 lf 1018,9 hPa 0,0 l/m 0 min 0 min 5 W/m 6,3 km/h (2 Bft)
20.06.2015 05:32 10,0 C 8,9 C 96 % 15 lf 1018,9 hPa 0,0 l/m 0 min 0 min 5 W/m 6,3 km/h (2 Bft)
20.06.2015 05:34 10,0 C 9,4 C 96 % 15 lf 1018,8 hPa 0,0 l/m 0 min 0 min 5 W/m 8,4 km/h (2 Bft)
20.06.2015 05:36 10,0 C 9,4 C 96 % 15 lf 1018,8 hPa 0,0 l/m 0 min 0 min 5 W/m 8,4 km/h (2 Bft)
20.06.2015 05:38 10,0 C 9,4 C 96 % 15 lf 1018,8 hPa 0,0 l/m 0 min 0 min 7 W/m 4,2 km/h (1 Bft)
20.06.2015 05:40 10,0 C 9,4 C 96 % 15 lf 1018,8 hPa 0,0 l/m 0 min 0 min 7 W/m 8,4 km/h (2 Bft)
20.06.2015 05:42 10,0 C 9,4 C 96 % 15 lf 1018,8 hPa 0,0 l/m 0 min 0 min 8 W/m 6,3 km/h (2 Bft)
20.06.2015 05:44 10,0 C 9,4 C 96 % 15 lf 1018,8 hPa 0,0 l/m 0 min 0 min 9 W/m 6,3 km/h (2 Bft)
20.06.2015 05:46 10,0 C 9,4 C 96 % 15 lf 1018,8 hPa 0,0 l/m 0 min 0 min 9 W/m 4,2 km/h (1 Bft)
20.06.2015 05:48 10,1 C 9,4 C 96 % 15 lf 1018,8 hPa 0,0 l/m 0 min 0 min 8 W/m 6,3 km/h (2 Bft)
20.06.2015 05:50 10,1 C 9,4 C 96 % 15 lf 1018,8 hPa 0,0 l/m 0 min 0 min 6 W/m 8,4 km/h (2 Bft)
20.06.2015 05:52 10,1 C 9,4 C 96 % 15 lf 1018,7 hPa 0,0 l/m 0 min 0 min 5 W/m 8,4 km/h (2 Bft)
20.06.2015 05:54 10,1 C 9,4 C 96 % 15 lf 1018,8 hPa 0,0 l/m 0 min 0 min 5 W/m 8,4 km/h (2 Bft)
20.06.2015 05:56 10,1 C 9,4 C 96 % 15 lf 1018,8 hPa 0,0 l/m 0 min 0 min 7 W/m 4,2 km/h (1 Bft)
20.06.2015 05:58 10,1 C 9,4 C 97 % 15 lf 1018,8 hPa 0,0 l/m 0 min 0 min 10 W/m 8,4 km/h (2 Bft)
20.06.2015 06:00 10,1 C 9,4 C 97 % 15 lf 1018,8 hPa 0,0 l/m 0 min 0 min 14 W/m 8,4 km/h (2 Bft)
20.06.2015 06:03 10,2 C 9,4 C 97 % 15 lf 1018,9 hPa 0,0 l/m 0 min 0 min 16 W/m 8,4 km/h (2 Bft)
20.06.2015 06:06 10,2 C 9,4 C 96 % 15 lf 1018,9 hPa 0,0 l/m 0 min 0 min 17 W/m 8,4 km/h (2 Bft)
20.06.2015 06:08 10,2 C 9,4 C 97 % 15 lf 1018,9 hPa 0,0 l/m 0 min 0 min 18 W/m 6,3 km/h (2 Bft)
20.06.2015 06:10 10,2 C 9,4 C 96 % 15 lf 1018,8 hPa 0,0 l/m 0 min 0 min 18 W/m 6,3 km/h (2 Bft)
20.06.2015 06:12 10,2 C 9,4 C 96 % 15 lf 1018,9 hPa 0,0 l/m 0 min 0 min 21 W/m 10,5 km/h (2 Bft)
20.06.2015 06:14 10,2 C 9,4 C 97 % 15 lf 1018,9 hPa 0,0 l/m 0 min 0 min 22 W/m 8,4 km/h (2 Bft)
20.06.2015 06:16 10,2 C 9,4 C 97 % 15 lf 1018,9 hPa 0,0 l/m 0 min 0 min 24 W/m 6,3 km/h (2 Bft)
20.06.2015 06:18 10,2 C 9,4 C 97 % 15 lf 1019,0 hPa 0,0 l/m 0 min 0 min 26 W/m 8,4 km/h (2 Bft)
20.06.2015 06:20 10,2 C 9,4 C 97 % 15 lf 1018,9 hPa 0,0 l/m 0 min 0 min 29 W/m 6,3 km/h (2 Bft)
20.06.2015 06:22 10,2 C 9,4 C 97 % 15 lf 1018,9 hPa 0,0 l/m 0 min 0 min 31 W/m 8,4 km/h (2 Bft)
20.06.2015 06:24 10,2 C 9,4 C 97 % 15 lf 1018,9 hPa 0,0 l/m 0 min 0 min 32 W/m 10,5 km/h (2 Bft)
20.06.2015 06:26 10,2 C 9,4 C 97 % 15 lf 1018,9 hPa 0,0 l/m 0 min 0 min 33 W/m 8,4 km/h (2 Bft)
20.06.2015 06:28 10,2 C 9,4 C 97 % 15 lf 1018,9 hPa 0,0 l/m 0 min 0 min 33 W/m 10,5 km/h (2 Bft)
20.06.2015 06:30 10,2 C 9,4 C 97 % 15 lf 1018,9 hPa 0,0 l/m 0 min 0 min 35 W/m 8,4 km/h (2 Bft)
20.06.2015 06:32 10,3 C 9,4 C 97 % 15 lf 1018,9 hPa 0,0 l/m 0 min 0 min 37 W/m 10,5 km/h (2 Bft)
20.06.2015 06:34 10,3 C 9,4 C 97 % 15 lf 1019,0 hPa 0,0 l/m 0 min 0 min 38 W/m 6,3 km/h (2 Bft)
20.06.2015 06:36 10,3 C 9,4 C 97 % 15 lf 1019,0 hPa 0,0 l/m 0 min 0 min 39 W/m 6,3 km/h (2 Bft)
20.06.2015 06:38 10,3 C 9,4 C 97 % 15 lf 1019,0 hPa 0,0 l/m 0 min 0 min 42 W/m 10,5 km/h (2 Bft)
20.06.2015 06:40 10,3 C 9,4 C 97 % 15 lf 1019,0 hPa 0,0 l/m 0 min 0 min 44 W/m 8,4 km/h (2 Bft)
20.06.2015 06:42 10,3 C 9,4 C 97 % 15 lf 1019,0 hPa 0,0 l/m 0 min 0 min 44 W/m 12,6 km/h (3 Bft)
20.06.2015 06:44 10,4 C 9,4 C 97 % 15 lf 1019,0 hPa 0,0 l/m 0 min 0 min 44 W/m 10,5 km/h (2 Bft)
20.06.2015 06:46 10,4 C 9,4 C 97 % 15 lf 1019,0 hPa 0,0 l/m 0 min 0 min 41 W/m 10,5 km/h (2 Bft)
20.06.2015 06:48 10,4 C 9,4 C 97 % 15 lf 1019,0 hPa 0,0 l/m 0 min 0 min 37 W/m 14,6 km/h (3 Bft)
20.06.2015 06:50 10,4 C 9,4 C 97 % 15 lf 1019,0 hPa 0,0 l/m 0 min 0 min 40 W/m 16,7 km/h (3 Bft)
20.06.2015 06:52 10,4 C 9,4 C 97 % 15 lf 1019,1 hPa 0,0 l/m 0 min 0 min 43 W/m 12,6 km/h (3 Bft)
20.06.2015 06:54 10,4 C 9,4 C 97 % 15 lf 1019,0 hPa 0,0 l/m 0 min 0 min 46 W/m 10,5 km/h (2 Bft)
20.06.2015 06:56 10,4 C 9,4 C 97 % 15 lf 1019,1 hPa 0,0 l/m 0 min 0 min 46 W/m 10,5 km/h (2 Bft)
20.06.2015 06:58 10,5 C 9,4 C 97 % 15 lf 1019,2 hPa 0,0 l/m 0 min 0 min 46 W/m 10,5 km/h (2 Bft)
20.06.2015 07:00 10,5 C 9,4 C 97 % 15 lf 1019,2 hPa 0,0 l/m 0 min 0 min 46 W/m 8,4 km/h (2 Bft)
20.06.2015 07:02 10,5 C 9,4 C 97 % 15 lf 1019,1 hPa 0,0 l/m 0 min 0 min 46 W/m 12,6 km/h (3 Bft)
20.06.2015 07:04 10,5 C 9,4 C 97 % 15 lf 1019,2 hPa 0,0 l/m 0 min 0 min 49 W/m 6,3 km/h (2 Bft)
20.06.2015 07:06 10,5 C 9,4 C 97 % 15 lf 1019,2 hPa 0,0 l/m 0 min 0 min 53 W/m 10,5 km/h (2 Bft)
20.06.2015 07:08 10,5 C 10,0 C 97 % 15 lf 1019,2 hPa 0,0 l/m 0 min 0 min 58 W/m 6,3 km/h (2 Bft)
20.06.2015 07:10 10,6 C 10,0 C 97 % 15 lf 1019,2 hPa 0,0 l/m 0 min 0 min 61 W/m 10,5 km/h (2 Bft)
20.06.2015 07:12 10,6 C 10,0 C 97 % 15 lf 1019,3 hPa 0,0 l/m 0 min 0 min 64 W/m 6,3 km/h (2 Bft)
20.06.2015 07:14 10,6 C 10,0 C 97 % 15 lf 1019,3 hPa 0,0 l/m 0 min 0 min 67 W/m 4,2 km/h (1 Bft)
20.06.2015 07:16 10,6 C 10,0 C 97 % 15 lf 1019,3 hPa 0,0 l/m 0 min 0 min 72 W/m 10,5 km/h (2 Bft)
20.06.2015 07:18 10,6 C 10,0 C 97 % 15 lf 1019,2 hPa 0,0 l/m 0 min 0 min 75 W/m 8,4 km/h (2 Bft)
20.06.2015 07:20 10,6 C 10,0 C 97 % 15 lf 1019,3 hPa 0,0 l/m 0 min 0 min 78 W/m 10,5 km/h (2 Bft)
20.06.2015 07:22 10,6 C 10,0 C 97 % 15 lf 1019,3 hPa 0,0 l/m 0 min 0 min 81 W/m 10,5 km/h (2 Bft)
20.06.2015 07:24 10,7 C 10,0 C 97 % 15 lf 1019,3 hPa 0,0 l/m 0 min 0 min 85 W/m 10,5 km/h (2 Bft)
20.06.2015 07:26 10,7 C 10,0 C 97 % 15 lf 1019,3 hPa 0,0 l/m 0 min 0 min 90 W/m 10,5 km/h (2 Bft)
20.06.2015 07:28 10,7 C 10,0 C 97 % 15 lf 1019,3 hPa 0,0 l/m 0 min 0 min 95 W/m 6,3 km/h (2 Bft)
20.06.2015 07:30 10,7 C 10,0 C 97 % 15 lf 1019,4 hPa 0,0 l/m 0 min 0 min 98 W/m 10,5 km/h (2 Bft)
20.06.2015 07:32 10,7 C 10,0 C 97 % 15 lf 1019,4 hPa 0,0 l/m 0 min 0 min 100 W/m 6,3 km/h (2 Bft)
20.06.2015 07:34 10,7 C 10,0 C 97 % 15 lf 1019,4 hPa 0,0 l/m 0 min 0 min 106 W/m 12,6 km/h (3 Bft)
20.06.2015 07:36 10,8 C 10,0 C 97 % 15 lf 1019,4 hPa 0,0 l/m 0 min 0 min 114 W/m 6,3 km/h (2 Bft)
20.06.2015 07:38 10,8 C 10,0 C 97 % 15 lf 1019,4 hPa 0,0 l/m 0 min 0 min 121 W/m 6,3 km/h (2 Bft)
20.06.2015 07:40 10,8 C 10,0 C 97 % 15 lf 1019,4 hPa 0,0 l/m 0 min 0 min 111 W/m 10,5 km/h (2 Bft)
20.06.2015 07:42 10,8 C 10,0 C 97 % 15 lf 1019,5 hPa 0,0 l/m 0 min 0 min 102 W/m 12,6 km/h (3 Bft)
20.06.2015 07:44 10,8 C 10,0 C 97 % 15 lf 1019,5 hPa 0,0 l/m 0 min 0 min 94 W/m 10,5 km/h (2 Bft)
20.06.2015 07:46 10,8 C 10,0 C 97 % 15 lf 1019,5 hPa 0,0 l/m 0 min 0 min 88 W/m 10,5 km/h (2 Bft)
20.06.2015 07:48 10,8 C 10,0 C 97 % 15 lf 1019,5 hPa 0,0 l/m 0 min 0 min 87 W/m 10,5 km/h (2 Bft)
20.06.2015 07:50 10,9 C 10,0 C 97 % 15 lf 1019,6 hPa 0,0 l/m 0 min 0 min 94 W/m 8,4 km/h (2 Bft)
20.06.2015 07:52 10,9 C 10,0 C 97 % 15 lf 1019,6 hPa 0,0 l/m 0 min 0 min 100 W/m 12,6 km/h (3 Bft)
20.06.2015 07:54 10,9 C 10,0 C 97 % 15 lf 1019,5 hPa 0,0 l/m 0 min 0 min 95 W/m 8,4 km/h (2 Bft)
20.06.2015 07:56 10,9 C 10,0 C 97 % 15 lf 1019,5 hPa 0,0 l/m 0 min 0 min 89 W/m 12,6 km/h (3 Bft)
20.06.2015 07:58 10,9 C 10,0 C 97 % 15 lf 1019,6 hPa 0,0 l/m 0 min 0 min 92 W/m 12,6 km/h (3 Bft)
20.06.2015 08:00 10,9 C 10,0 C 97 % 15 lf 1019,5 hPa 0,0 l/m 0 min 0 min 94 W/m 10,5 km/h (2 Bft)
20.06.2015 08:02 10,9 C 9,4 C 97 % 15 lf 1019,6 hPa 0,0 l/m 0 min 0 min 104 W/m 14,6 km/h (3 Bft)
20.06.2015 08:04 10,9 C 10,0 C 97 % 15 lf 1019,6 hPa 0,0 l/m 0 min 0 min 136 W/m 14,6 km/h (3 Bft)
20.06.2015 08:06 10,9 C 10,0 C 97 % 14 lf 1019,6 hPa 0,0 l/m 2 min 0 min 200 W/m 8,4 km/h (2 Bft)
20.06.2015 08:08 10,9 C 10,0 C 97 % 14 lf 1019,7 hPa 0,0 l/m 2 min 0 min 296 W/m 14,6 km/h (3 Bft)
20.06.2015 08:10 10,9 C 10,0 C 97 % 14 lf 1019,6 hPa 0,0 l/m 2 min 0 min 289 W/m 12,6 km/h (3 Bft)
20.06.2015 08:12 10,9 C 10,0 C 97 % 14 lf 1019,6 hPa 0,0 l/m 2 min 0 min 329 W/m 12,6 km/h (3 Bft)
20.06.2015 08:14 10,9 C 10,0 C 97 % 14 lf 1019,6 hPa 0,0 l/m 2 min 0 min 294 W/m 14,6 km/h (3 Bft)
20.06.2015 08:16 11,0 C 10,0 C 97 % 14 lf 1019,6 hPa 0,0 l/m 0 min 0 min 191 W/m 10,5 km/h (2 Bft)
20.06.2015 08:18 11,0 C 10,0 C 97 % 14 lf 1019,6 hPa 0,0 l/m 2 min 0 min 200 W/m 8,4 km/h (2 Bft)
20.06.2015 08:20 11,0 C 10,0 C 97 % 13 lf 1019,6 hPa 0,0 l/m 2 min 0 min 278 W/m 8,4 km/h (2 Bft)
20.06.2015 08:22 11,0 C 10,0 C 97 % 14 lf 1019,6 hPa 0,0 l/m 2 min 0 min 487 W/m 16,7 km/h (3 Bft)
20.06.2015 08:24 11,0 C 10,0 C 97 % 13 lf 1019,6 hPa 0,0 l/m 2 min 0 min 348 W/m 16,7 km/h (3 Bft)
20.06.2015 08:26 11,0 C 10,0 C 97 % 13 lf 1019,6 hPa 0,0 l/m 2 min 0 min 448 W/m 10,5 km/h (2 Bft)
20.06.2015 08:28 11,1 C 10,0 C 97 % 13 lf 1019,6 hPa 0,0 l/m 2 min 0 min 460 W/m 12,6 km/h (3 Bft)
20.06.2015 08:30 11,1 C 10,0 C 97 % 12 lf 1019,6 hPa 0,0 l/m 2 min 0 min 471 W/m 14,6 km/h (3 Bft)
20.06.2015 08:32 11,1 C 10,0 C 97 % 12 lf 1019,7 hPa 0,0 l/m 2 min 0 min 509 W/m 14,6 km/h (3 Bft)
20.06.2015 08:34 11,2 C 10,0 C 97 % 11 lf 1019,7 hPa 0,0 l/m 2 min 0 min 516 W/m 14,6 km/h (3 Bft)
20.06.2015 08:36 11,2 C 10,0 C 97 % 10 lf 1019,8 hPa 0,0 l/m 2 min 0 min 588 W/m 12,6 km/h (3 Bft)
20.06.2015 08:38 11,3 C 10,6 C 97 % 9 lf 1019,7 hPa 0,0 l/m 2 min 0 min 539 W/m 14,6 km/h (3 Bft)
20.06.2015 08:40 11,4 C 10,6 C 97 % 3 lf 1019,8 hPa 0,0 l/m 2 min 0 min 566 W/m 18,8 km/h (3 Bft)
20.06.2015 08:42 11,4 C 10,6 C 97 % 2 lf 1019,8 hPa 0,0 l/m 2 min 0 min 596 W/m 16,7 km/h (3 Bft)
20.06.2015 08:44 11,6 C 10,6 C 97 % 1 lf 1019,8 hPa 0,0 l/m 2 min 0 min 636 W/m 14,6 km/h (3 Bft)
20.06.2015 08:46 11,7 C 11,1 C 97 % 0 lf 1019,8 hPa 0,0 l/m 2 min 0 min 665 W/m 14,6 km/h (3 Bft)
20.06.2015 08:48 11,8 C 11,1 C 97 % 1 lf 1019,8 hPa 0,0 l/m 2 min 0 min 575 W/m 10,5 km/h (2 Bft)
20.06.2015 08:50 11,9 C 11,1 C 97 % 0 lf 1019,8 hPa 0,0 l/m 0 min 0 min 178 W/m 18,8 km/h (3 Bft)
20.06.2015 08:52 12,0 C 10,6 C 97 % 0 lf 1019,8 hPa 0,0 l/m 2 min 0 min 275 W/m 14,6 km/h (3 Bft)
20.06.2015 08:54 12,1 C 10,6 C 97 % 0 lf 1019,8 hPa 0,0 l/m 2 min 0 min 503 W/m 14,6 km/h (3 Bft)
20.06.2015 08:56 12,1 C 10,6 C 97 % 0 lf 1019,8 hPa 0,0 l/m 2 min 0 min 617 W/m 10,5 km/h (2 Bft)
20.06.2015 08:58 12,2 C 10,6 C 97 % 0 lf 1019,8 hPa 0,0 l/m 0 min 0 min 240 W/m 14,6 km/h (3 Bft)
20.06.2015 09:00 12,2 C 10,6 C 97 % 0 lf 1019,9 hPa 0,0 l/m 0 min 0 min 167 W/m 12,6 km/h (3 Bft)
20.06.2015 09:02 12,3 C 10,6 C 97 % 0 lf 1019,8 hPa 0,0 l/m 2 min 0 min 567 W/m 12,6 km/h (3 Bft)
20.06.2015 09:04 12,3 C 10,6 C 97 % 0 lf 1019,8 hPa 0,0 l/m 0 min 0 min 240 W/m 12,6 km/h (3 Bft)
20.06.2015 09:06 12,3 C 10,6 C 96 % 0 lf 1019,9 hPa 0,0 l/m 0 min 0 min 156 W/m 10,5 km/h (2 Bft)
20.06.2015 09:08 12,3 C 10,6 C 96 % 0 lf 1019,9 hPa 0,0 l/m 0 min 0 min 119 W/m 16,7 km/h (3 Bft)
20.06.2015 09:10 12,3 C 10,0 C 96 % 0 lf 1019,9 hPa 0,0 l/m 0 min 0 min 114 W/m 14,6 km/h (3 Bft)
20.06.2015 09:12 12,3 C 10,0 C 96 % 0 lf 1019,9 hPa 0,0 l/m 0 min 0 min 117 W/m 14,6 km/h (3 Bft)
20.06.2015 09:14 12,3 C 10,0 C 95 % 0 lf 1020,0 hPa 0,0 l/m 0 min 0 min 135 W/m 8,4 km/h (2 Bft)
20.06.2015 09:16 12,3 C 10,0 C 94 % 0 lf 1020,0 hPa 0,0 l/m 0 min 0 min 181 W/m 8,4 km/h (2 Bft)
20.06.2015 09:18 12,3 C 10,6 C 94 % 0 lf 1020,0 hPa 0,0 l/m 0 min 0 min 207 W/m 12,6 km/h (3 Bft)
20.06.2015 09:20 12,3 C 10,6 C 93 % 0 lf 1020,0 hPa 0,0 l/m 0 min 0 min 204 W/m 12,6 km/h (3 Bft)
20.06.2015 09:22 12,3 C 10,6 C 93 % 0 lf 1020,0 hPa 0,0 l/m 0 min 0 min 205 W/m 12,6 km/h (3 Bft)
20.06.2015 09:24 12,3 C 10,6 C 93 % 0 lf 1020,0 hPa 0,0 l/m 0 min 0 min 214 W/m 12,6 km/h (3 Bft)
20.06.2015 09:26 12,3 C 10,6 C 92 % 0 lf 1020,0 hPa 0,0 l/m 0 min 0 min 217 W/m 8,4 km/h (2 Bft)
20.06.2015 09:28 12,3 C 10,6 C 91 % 0 lf 1020,0 hPa 0,0 l/m 0 min 0 min 205 W/m 6,3 km/h (2 Bft)
20.06.2015 09:30 12,4 C 10,6 C 91 % 0 lf 1020,0 hPa 0,0 l/m 0 min 0 min 227 W/m 16,7 km/h (3 Bft)
20.06.2015 09:32 12,4 C 11,1 C 91 % 0 lf 1020,0 hPa 0,0 l/m 0 min 0 min 250 W/m 12,6 km/h (3 Bft)
20.06.2015 09:34 12,5 C 11,1 C 90 % 0 lf 1020,0 hPa 0,0 l/m 2 min 0 min 570 W/m 14,6 km/h (3 Bft)
20.06.2015 09:36 12,6 C 11,1 C 90 % 0 lf 1020,1 hPa 0,0 l/m 2 min 0 min 846 W/m 14,6 km/h (3 Bft)
20.06.2015 09:38 12,7 C 11,7 C 89 % 0 lf 1020,1 hPa 0,0 l/m 2 min 0 min 868 W/m 14,6 km/h (3 Bft)
20.06.2015 09:40 12,8 C 11,1 C 89 % 0 lf 1020,0 hPa 0,0 l/m 2 min 0 min 773 W/m 16,7 km/h (3 Bft)
20.06.2015 09:42 12,9 C 11,1 C 88 % 0 lf 1020,0 hPa 0,0 l/m 0 min 0 min 196 W/m 16,7 km/h (3 Bft)
20.06.2015 09:44 12,9 C 10,6 C 87 % 0 lf 1020,0 hPa 0,0 l/m 0 min 0 min 162 W/m 16,7 km/h (3 Bft)
20.06.2015 09:46 12,9 C 10,6 C 86 % 0 lf 1020,0 hPa 0,0 l/m 0 min 0 min 130 W/m 6,3 km/h (2 Bft)
20.06.2015 09:48 13,0 C 10,6 C 86 % 0 lf 1020,0 hPa 0,0 l/m 0 min 0 min 107 W/m 16,7 km/h (3 Bft)
20.06.2015 09:50 13,1 C 10,6 C 86 % 0 lf 1020,1 hPa 0,0 l/m 0 min 0 min 101 W/m 12,6 km/h (3 Bft)
20.06.2015 09:52 13,1 C 10,6 C 86 % 0 lf 1020,1 hPa 0,0 l/m 0 min 0 min 98 W/m 10,5 km/h (2 Bft)
20.06.2015 09:54 13,1 C 10,6 C 85 % 0 lf 1020,1 hPa 0,0 l/m 0 min 0 min 96 W/m 10,5 km/h (2 Bft)
20.06.2015 09:56 13,1 C 10,6 C 84 % 0 lf 1020,1 hPa 0,0 l/m 0 min 0 min 102 W/m 12,6 km/h (3 Bft)
20.06.2015 09:58 13,0 C 10,6 C 84 % 0 lf 1020,1 hPa 0,0 l/m 0 min 0 min 120 W/m 16,7 km/h (3 Bft)
20.06.2015 10:00 13,0 C 10,6 C 83 % 0 lf 1020,1 hPa 0,0 l/m 0 min 0 min 139 W/m 14,6 km/h (3 Bft)
20.06.2015 10:02 13,0 C 10,6 C 83 % 0 lf 1020,1 hPa 0,0 l/m 0 min 0 min 153 W/m 12,6 km/h (3 Bft)
20.06.2015 10:04 13,0 C 10,6 C 83 % 0 lf 1020,1 hPa 0,0 l/m 0 min 0 min 165 W/m 6,3 km/h (2 Bft)
20.06.2015 10:06 13,0 C 10,6 C 83 % 0 lf 1020,1 hPa 0,0 l/m 0 min 0 min 184 W/m 12,6 km/h (3 Bft)
20.06.2015 10:08 12,9 C 10,6 C 83 % 0 lf 1020,2 hPa 0,0 l/m 0 min 0 min 203 W/m 12,6 km/h (3 Bft)
20.06.2015 10:10 13,0 C 11,1 C 83 % 0 lf 1020,2 hPa 0,0 l/m 0 min 0 min 222 W/m 10,5 km/h (2 Bft)
20.06.2015 10:12 13,0 C 11,1 C 83 % 0 lf 1020,1 hPa 0,0 l/m 0 min 0 min 234 W/m 10,5 km/h (2 Bft)
20.06.2015 10:14 13,0 C 11,1 C 84 % 0 lf 1020,1 hPa 0,0 l/m 0 min 0 min 235 W/m 12,6 km/h (3 Bft)
20.06.2015 10:16 13,1 C 11,1 C 84 % 0 lf 1020,1 hPa 0,0 l/m 0 min 0 min 234 W/m 12,6 km/h (3 Bft)
20.06.2015 10:18 13,1 C 11,7 C 85 % 0 lf 1020,1 hPa 0,0 l/m 0 min 0 min 238 W/m 10,5 km/h (2 Bft)
20.06.2015 10:20 13,2 C 11,7 C 85 % 0 lf 1020,1 hPa 0,0 l/m 0 min 0 min 247 W/m 12,6 km/h (3 Bft)
20.06.2015 10:22 13,2 C 11,7 C 85 % 0 lf 1020,2 hPa 0,0 l/m 0 min 0 min 256 W/m 10,5 km/h (2 Bft)
20.06.2015 10:24 13,2 C 11,7 C 85 % 0 lf 1020,2 hPa 0,0 l/m 0 min 0 min 262 W/m 8,4 km/h (2 Bft)
20.06.2015 10:26 13,3 C 11,7 C 85 % 0 lf 1020,2 hPa 0,0 l/m 0 min 0 min 265 W/m 12,6 km/h (3 Bft)
20.06.2015 10:28 13,3 C 11,7 C 84 % 0 lf 1020,3 hPa 0,0 l/m 0 min 0 min 271 W/m 16,7 km/h (3 Bft)
20.06.2015 10:30 13,3 C 11,7 C 84 % 0 lf 1020,2 hPa 0,0 l/m 0 min 0 min 277 W/m 14,6 km/h (3 Bft)
20.06.2015 10:32 13,3 C 11,7 C 84 % 0 lf 1020,3 hPa 0,0 l/m 0 min 0 min 274 W/m 16,7 km/h (3 Bft)
20.06.2015 10:34 13,3 C 11,1 C 84 % 0 lf 1020,3 hPa 0,0 l/m 0 min 0 min 265 W/m 12,6 km/h (3 Bft)
20.06.2015 10:36 13,3 C 11,1 C 83 % 0 lf 1020,2 hPa 0,0 l/m 0 min 0 min 253 W/m 14,6 km/h (3 Bft)
20.06.2015 10:38 13,3 C 11,1 C 83 % 0 lf 1020,3 hPa 0,0 l/m 0 min 0 min 232 W/m 14,6 km/h (3 Bft)
20.06.2015 10:40 13,3 C 11,1 C 82 % 0 lf 1020,2 hPa 0,0 l/m 0 min 0 min 210 W/m 6,3 km/h (2 Bft)
20.06.2015 10:42 13,4 C 11,1 C 82 % 0 lf 1020,3 hPa 0,0 l/m 0 min 0 min 193 W/m 8,4 km/h (2 Bft)
20.06.2015 10:44 13,4 C 11,1 C 82 % 0 lf 1020,3 hPa 0,0 l/m 0 min 0 min 181 W/m 8,4 km/h (2 Bft)
20.06.2015 10:46 13,4 C 11,1 C 82 % 0 lf 1020,3 hPa 0,0 l/m 0 min 0 min 172 W/m 12,6 km/h (3 Bft)
20.06.2015 10:48 13,4 C 11,1 C 82 % 0 lf 1020,4 hPa 0,0 l/m 0 min 0 min 164 W/m 10,5 km/h (2 Bft)
20.06.2015 10:50 13,4 C 11,1 C 82 % 0 lf 1020,4 hPa 0,0 l/m 0 min 0 min 153 W/m 8,4 km/h (2 Bft)
20.06.2015 10:52 13,4 C 11,1 C 82 % 0 lf 1020,5 hPa 0,0 l/m 0 min 0 min 139 W/m 8,4 km/h (2 Bft)
20.06.2015 10:54 13,4 C 11,1 C 82 % 0 lf 1020,4 hPa 0,0 l/m 0 min 0 min 125 W/m 10,5 km/h (2 Bft)
20.06.2015 10:56 13,4 C 11,1 C 82 % 0 lf 1020,5 hPa 0,0 l/m 0 min 0 min 115 W/m 10,5 km/h (2 Bft)
20.06.2015 10:58 13,4 C 11,1 C 82 % 0 lf 1020,5 hPa 0,0 l/m 0 min 0 min 105 W/m 10,5 km/h (2 Bft)
20.06.2015 11:00 13,4 C 11,1 C 82 % 0 lf 1020,5 hPa 0,0 l/m 0 min 0 min 101 W/m 10,5 km/h (2 Bft)
20.06.2015 11:02 13,4 C 10,6 C 82 % 0 lf 1020,5 hPa 0,0 l/m 0 min 0 min 103 W/m 12,6 km/h (3 Bft)
20.06.2015 11:04 13,3 C 10,6 C 82 % 0 lf 1020,5 hPa 0,0 l/m 0 min 0 min 105 W/m 12,6 km/h (3 Bft)
20.06.2015 11:06 13,3 C 10,6 C 82 % 0 lf 1020,5 hPa 0,0 l/m 0 min 0 min 109 W/m 10,5 km/h (2 Bft)
20.06.2015 11:08 13,3 C 10,6 C 82 % 0 lf 1020,5 hPa 0,0 l/m 0 min 0 min 117 W/m 6,3 km/h (2 Bft)
20.06.2015 11:10 13,3 C 10,6 C 82 % 0 lf 1020,5 hPa 0,0 l/m 0 min 0 min 128 W/m 10,5 km/h (2 Bft)
20.06.2015 11:12 13,2 C 11,1 C 82 % 0 lf 1020,5 hPa 0,0 l/m 0 min 0 min 137 W/m 12,6 km/h (3 Bft)
20.06.2015 11:14 13,2 C 11,1 C 82 % 0 lf 1020,5 hPa 0,0 l/m 0 min 0 min 145 W/m 10,5 km/h (2 Bft)
20.06.2015 11:16 13,2 C 11,1 C 83 % 0 lf 1020,5 hPa 0,0 l/m 0 min 0 min 149 W/m 8,4 km/h (2 Bft)
20.06.2015 11:18 13,2 C 11,1 C 83 % 0 lf 1020,5 hPa 0,0 l/m 0 min 0 min 153 W/m 12,6 km/h (3 Bft)
20.06.2015 11:20 13,2 C 11,1 C 83 % 0 lf 1020,5 hPa 0,0 l/m 0 min 0 min 154 W/m 4,2 km/h (1 Bft)
20.06.2015 11:22 13,2 C 11,1 C 83 % 0 lf 1020,5 hPa 0,0 l/m 0 min 0 min 162 W/m 16,7 km/h (3 Bft)
20.06.2015 11:24 13,2 C 11,1 C 83 % 0 lf 1020,5 hPa 0,0 l/m 0 min 0 min 178 W/m 10,5 km/h (2 Bft)
20.06.2015 11:26 13,2 C 11,7 C 83 % 0 lf 1020,5 hPa 0,0 l/m 0 min 0 min 200 W/m 14,6 km/h (3 Bft)
20.06.2015 11:28 13,2 C 11,7 C 83 % 0 lf 1020,5 hPa 0,0 l/m 0 min 0 min 221 W/m 14,6 km/h (3 Bft)
20.06.2015 11:30 13,2 C 11,7 C 83 % 0 lf 1020,5 hPa 0,0 l/m 0 min 0 min 239 W/m 12,6 km/h (3 Bft)
20.06.2015 11:32 13,2 C 11,7 C 83 % 0 lf 1020,5 hPa 0,0 l/m 0 min 0 min 250 W/m 10,5 km/h (2 Bft)
20.06.2015 11:34 13,3 C 11,7 C 83 % 0 lf 1020,5 hPa 0,0 l/m 0 min 0 min 255 W/m 12,6 km/h (3 Bft)
20.06.2015 11:36 13,3 C 12,2 C 83 % 0 lf 1020,5 hPa 0,0 l/m 0 min 0 min 257 W/m 16,7 km/h (3 Bft)
20.06.2015 11:38 13,3 C 11,7 C 82 % 0 lf 1020,5 hPa 0,0 l/m 0 min 0 min 255 W/m 16,7 km/h (3 Bft)
20.06.2015 11:40 13,4 C 11,7 C 82 % 0 lf 1020,5 hPa 0,0 l/m 0 min 0 min 251 W/m 14,6 km/h (3 Bft)
20.06.2015 11:42 13,4 C 11,7 C 82 % 0 lf 1020,5 hPa 0,0 l/m 0 min 0 min 248 W/m 12,6 km/h (3 Bft)
20.06.2015 11:44 13,4 C 11,7 C 82 % 0 lf 1020,5 hPa 0,0 l/m 0 min 0 min 247 W/m 14,6 km/h (3 Bft)
20.06.2015 11:46 13,4 C 11,7 C 81 % 0 lf 1020,5 hPa 0,0 l/m 0 min 0 min 248 W/m 14,6 km/h (3 Bft)
20.06.2015 11:48 13,4 C 11,7 C 81 % 0 lf 1020,5 hPa 0,0 l/m 0 min 0 min 247 W/m 14,6 km/h (3 Bft)
20.06.2015 11:50 13,4 C 12,2 C 80 % 0 lf 1020,5 hPa 0,0 l/m 0 min 0 min 243 W/m 14,6 km/h (3 Bft)
20.06.2015 11:52 13,4 C 12,8 C 80 % 0 lf 1020,6 hPa 0,0 l/m 0 min 0 min 241 W/m 10,5 km/h (2 Bft)
20.06.2015 11:54 13,4 C 12,8 C 80 % 0 lf 1020,5 hPa 0,0 l/m 0 min 0 min 232 W/m 8,4 km/h (2 Bft)
20.06.2015 11:56 13,5 C 12,8 C 81 % 0 lf 1020,5 hPa 0,0 l/m 0 min 0 min 214 W/m 8,4 km/h (2 Bft)
20.06.2015 11:58 13,6 C 12,8 C 81 % 0 lf 1020,5 hPa 0,0 l/m 0 min 0 min 196 W/m 14,6 km/h (3 Bft)
20.06.2015 12:00 13,6 C 12,8 C 81 % 0 lf 1020,5 hPa 0,0 l/m 0 min 0 min 182 W/m 10,5 km/h (2 Bft)
20.06.2015 12:03 13,6 C 12,8 C 80 % 0 lf 1020,5 hPa 0,0 l/m 0 min 0 min 148 W/m 8,4 km/h (2 Bft)
20.06.2015 12:04 13,6 C 12,8 C 80 % 0 lf 1020,6 hPa 0,0 l/m 0 min 0 min 152 W/m 8,4 km/h (2 Bft)
20.06.2015 12:06 13,7 C 12,8 C 80 % 0 lf 1020,6 hPa 0,0 l/m 0 min 0 min 131 W/m 8,4 km/h (2 Bft)
20.06.2015 12:08 13,7 C 12,8 C 80 % 0 lf 1020,6 hPa 0,0 l/m 0 min 0 min 124 W/m 10,5 km/h (2 Bft)
20.06.2015 12:10 13,7 C 12,8 C 80 % 0 lf 1020,6 hPa 0,0 l/m 0 min 0 min 119 W/m 10,5 km/h (2 Bft)
20.06.2015 12:12 13,7 C 12,8 C 80 % 3 lf 1020,6 hPa 0,0 l/m 0 min 2 min 125 W/m 10,5 km/h (2 Bft)
20.06.2015 12:14 13,7 C 12,2 C 80 % 1 lf 1020,6 hPa 0,0 l/m 0 min 0 min 148 W/m 6,3 km/h (2 Bft)
20.06.2015 12:16 13,7 C 12,8 C 80 % 0 lf 1020,6 hPa 0,0 l/m 0 min 0 min 181 W/m 6,3 km/h (2 Bft)
20.06.2015 12:18 13,7 C 12,2 C 80 % 0 lf 1020,6 hPa 0,0 l/m 0 min 0 min 212 W/m 10,5 km/h (2 Bft)
20.06.2015 12:20 13,7 C 12,8 C 80 % 0 lf 1020,6 hPa 0,0 l/m 0 min 0 min 239 W/m 8,4 km/h (2 Bft)
20.06.2015 12:22 13,6 C 12,8 C 80 % 0 lf 1020,5 hPa 0,0 l/m 0 min 0 min 268 W/m 10,5 km/h (2 Bft)
20.06.2015 12:24 13,7 C 13,3 C 80 % 0 lf 1020,6 hPa 0,0 l/m 0 min 0 min 297 W/m 6,3 km/h (2 Bft)
20.06.2015 12:26 13,7 C 13,3 C 80 % 0 lf 1020,6 hPa 0,0 l/m 0 min 0 min 323 W/m 8,4 km/h (2 Bft)
20.06.2015 12:28 13,7 C 13,9 C 80 % 0 lf 1020,6 hPa 0,0 l/m 0 min 0 min 344 W/m 10,5 km/h (2 Bft)
20.06.2015 12:30 13,7 C 13,9 C 81 % 0 lf 1020,6 hPa 0,0 l/m 0 min 0 min 368 W/m 8,4 km/h (2 Bft)
20.06.2015 12:32 13,8 C 13,9 C 81 % 0 lf 1020,6 hPa 0,0 l/m 0 min 0 min 387 W/m 8,4 km/h (2 Bft)
20.06.2015 12:34 13,8 C 13,9 C 80 % 0 lf 1020,5 hPa 0,0 l/m 0 min 0 min 405 W/m 8,4 km/h (2 Bft)
20.06.2015 12:36 13,8 C 13,9 C 80 % 0 lf 1020,5 hPa 0,0 l/m 2 min 0 min 423 W/m 6,3 km/h (2 Bft)
20.06.2015 12:38 13,9 C 14,4 C 79 % 0 lf 1020,5 hPa 0,0 l/m 2 min 0 min 443 W/m 6,3 km/h (2 Bft)
20.06.2015 12:40 13,9 C 14,4 C 79 % 0 lf 1020,4 hPa 0,0 l/m 2 min 0 min 464 W/m 6,3 km/h (2 Bft)
20.06.2015 12:42 14,1 C 14,4 C 79 % 0 lf 1020,5 hPa 0,0 l/m 2 min 0 min 488 W/m 8,4 km/h (2 Bft)
20.06.2015 12:44 14,2 C 15,0 C 79 % 0 lf 1020,5 hPa 0,0 l/m 2 min 0 min 515 W/m 8,4 km/h (2 Bft)
20.06.2015 12:46 14,2 C 15,0 C 79 % 0 lf 1020,5 hPa 0,0 l/m 2 min 0 min 532 W/m 6,3 km/h (2 Bft)
20.06.2015 12:48 14,3 C 15,6 C 79 % 0 lf 1020,5 hPa 0,0 l/m 2 min 0 min 524 W/m 8,4 km/h (2 Bft)
20.06.2015 12:50 14,5 C 15,6 C 79 % 0 lf 1020,5 hPa 0,0 l/m 2 min 0 min 509 W/m 10,5 km/h (2 Bft)
20.06.2015 12:52 14,6 C 15,6 C 78 % 0 lf 1020,5 hPa 0,0 l/m 2 min 0 min 486 W/m 8,4 km/h (2 Bft)
20.06.2015 12:54 14,7 C 15,6 C 78 % 0 lf 1020,5 hPa 0,0 l/m 2 min 0 min 459 W/m 8,4 km/h (2 Bft)
20.06.2015 12:56 14,8 C 15,6 C 78 % 0 lf 1020,5 hPa 0,0 l/m 2 min 0 min 424 W/m 8,4 km/h (2 Bft)
20.06.2015 12:58 14,9 C 15,6 C 77 % 0 lf 1020,5 hPa 0,0 l/m 0 min 0 min 401 W/m 14,6 km/h (3 Bft)
20.06.2015 13:00 15,0 C 15,0 C 76 % 0 lf 1020,5 hPa 0,0 l/m 0 min 0 min 388 W/m 10,5 km/h (2 Bft)
20.06.2015 13:02 15,1 C 15,0 C 74 % 0 lf 1020,5 hPa 0,0 l/m 0 min 0 min 375 W/m 10,5 km/h (2 Bft)
20.06.2015 13:04 15,1 C 15,0 C 74 % 0 lf 1020,4 hPa 0,0 l/m 0 min 0 min 379 W/m 16,7 km/h (3 Bft)
20.06.2015 13:06 15,2 C 15,0 C 74 % 0 lf 1020,5 hPa 0,0 l/m 0 min 0 min 412 W/m 18,8 km/h (3 Bft)
20.06.2015 13:08 15,2 C 15,0 C 73 % 0 lf 1020,4 hPa 0,0 l/m 2 min 0 min 443 W/m 12,6 km/h (3 Bft)
20.06.2015 13:10 15,3 C 15,0 C 73 % 0 lf 1020,5 hPa 0,0 l/m 2 min 0 min 446 W/m 12,6 km/h (3 Bft)
20.06.2015 13:12 15,3 C 15,6 C 73 % 0 lf 1020,5 hPa 0,0 l/m 2 min 0 min 440 W/m 12,6 km/h (3 Bft)
20.06.2015 13:14 15,4 C 15,6 C 72 % 0 lf 1020,5 hPa 0,0 l/m 2 min 0 min 443 W/m 8,4 km/h (2 Bft)
20.06.2015 13:16 15,4 C 15,6 C 71 % 0 lf 1020,5 hPa 0,0 l/m 2 min 0 min 446 W/m 8,4 km/h (2 Bft)
20.06.2015 13:18 15,5 C 15,6 C 72 % 0 lf 1020,6 hPa 0,0 l/m 2 min 0 min 436 W/m 14,6 km/h (3 Bft)
20.06.2015 13:20 15,5 C 15,6 C 71 % 0 lf 1020,5 hPa 0,0 l/m 0 min 0 min 415 W/m 12,6 km/h (3 Bft)
20.06.2015 13:22 15,6 C 15,6 C 71 % 0 lf 1020,5 hPa 0,0 l/m 0 min 0 min 401 W/m 10,5 km/h (2 Bft)
20.06.2015 13:24 15,6 C 15,6 C 71 % 0 lf 1020,4 hPa 0,0 l/m 0 min 0 min 384 W/m 8,4 km/h (2 Bft)
20.06.2015 13:26 15,7 C 15,6 C 71 % 0 lf 1020,5 hPa 0,0 l/m 0 min 0 min 366 W/m 14,6 km/h (3 Bft)
20.06.2015 13:28 15,7 C 15,6 C 71 % 0 lf 1020,4 hPa 0,0 l/m 0 min 0 min 363 W/m 14,6 km/h (3 Bft)
20.06.2015 13:30 15,8 C 15,6 C 71 % 0 lf 1020,6 hPa 0,0 l/m 0 min 0 min 378 W/m 10,5 km/h (2 Bft)
20.06.2015 13:32 15,8 C 15,6 C 70 % 0 lf 1020,5 hPa 0,0 l/m 0 min 0 min 395 W/m 10,5 km/h (2 Bft)
20.06.2015 13:34 15,8 C 15,6 C 69 % 0 lf 1020,5 hPa 0,0 l/m 0 min 0 min 401 W/m 14,6 km/h (3 Bft)
20.06.2015 13:36 15,9 C 15,6 C 69 % 0 lf 1020,4 hPa 0,0 l/m 0 min 0 min 396 W/m 12,6 km/h (3 Bft)
20.06.2015 13:38 15,9 C 15,6 C 70 % 0 lf 1020,5 hPa 0,0 l/m 0 min 0 min 375 W/m 16,7 km/h (3 Bft)
20.06.2015 13:40 15,9 C 15,6 C 69 % 0 lf 1020,4 hPa 0,0 l/m 0 min 0 min 355 W/m 14,6 km/h (3 Bft)
20.06.2015 13:42 16,0 C 15,6 C 69 % 0 lf 1020,4 hPa 0,0 l/m 0 min 0 min 357 W/m 14,6 km/h (3 Bft)
20.06.2015 13:44 16,1 C 16,1 C 70 % 0 lf 1020,4 hPa 0,0 l/m 0 min 0 min 364 W/m 12,6 km/h (3 Bft)
20.06.2015 13:46 16,1 C 15,6 C 69 % 0 lf 1020,5 hPa 0,0 l/m 0 min 0 min 376 W/m 16,7 km/h (3 Bft)
20.06.2015 13:48 16,1 C 15,6 C 68 % 0 lf 1020,5 hPa 0,0 l/m 0 min 0 min 387 W/m 12,6 km/h (3 Bft)
20.06.2015 13:50 16,1 C 15,6 C 68 % 0 lf 1020,4 hPa 0,0 l/m 0 min 0 min 400 W/m 12,6 km/h (3 Bft)
20.06.2015 13:52 16,1 C 15,6 C 68 % 0 lf 1020,4 hPa 0,0 l/m 0 min 0 min 418 W/m 8,4 km/h (2 Bft)
20.06.2015 13:54 16,1 C 16,1 C 69 % 0 lf 1020,4 hPa 0,0 l/m 2 min 0 min 429 W/m 8,4 km/h (2 Bft)
20.06.2015 13:56 16,1 C 16,1 C 68 % 0 lf 1020,4 hPa 0,0 l/m 2 min 0 min 438 W/m 6,3 km/h (2 Bft)
20.06.2015 13:58 16,1 C 16,1 C 68 % 0 lf 1020,4 hPa 0,0 l/m 2 min 0 min 446 W/m 10,5 km/h (2 Bft)
20.06.2015 14:00 16,1 C 16,1 C 67 % 0 lf 1020,4 hPa 0,0 l/m 2 min 0 min 447 W/m 10,5 km/h (2 Bft)
20.06.2015 14:02 16,2 C 16,7 C 67 % 0 lf 1020,4 hPa 0,0 l/m 2 min 0 min 443 W/m 20,9 km/h (4 Bft)
20.06.2015 14:04 16,2 C 16,7 C 67 % 0 lf 1020,4 hPa 0,0 l/m 2 min 0 min 423 W/m 16,7 km/h (3 Bft)
20.06.2015 14:06 16,3 C 16,7 C 67 % 0 lf 1020,4 hPa 0,0 l/m 0 min 0 min 393 W/m 16,7 km/h (3 Bft)
20.06.2015 14:08 16,3 C 16,1 C 66 % 0 lf 1020,4 hPa 0,0 l/m 0 min 0 min 364 W/m 14,6 km/h (3 Bft)
20.06.2015 14:10 16,4 C 16,1 C 66 % 0 lf 1020,4 hPa 0,0 l/m 0 min 0 min 327 W/m 10,5 km/h (2 Bft)
20.06.2015 14:12 16,4 C 16,1 C 66 % 0 lf 1020,4 hPa 0,0 l/m 0 min 0 min 286 W/m 14,6 km/h (3 Bft)
20.06.2015 14:14 16,4 C 15,6 C 66 % 0 lf 1020,4 hPa 0,0 l/m 0 min 0 min 250 W/m 12,6 km/h (3 Bft)
20.06.2015 14:16 16,4 C 15,0 C 65 % 0 lf 1020,4 hPa 0,0 l/m 0 min 0 min 216 W/m 18,8 km/h (3 Bft)
20.06.2015 14:18 16,4 C 15,0 C 64 % 0 lf 1020,4 hPa 0,0 l/m 0 min 0 min 193 W/m 14,6 km/h (3 Bft)
20.06.2015 14:20 16,3 C 15,0 C 64 % 0 lf 1020,4 hPa 0,0 l/m 0 min 0 min 179 W/m 14,6 km/h (3 Bft)
20.06.2015 14:22 16,3 C 15,0 C 66 % 0 lf 1020,3 hPa 0,0 l/m 0 min 0 min 170 W/m 6,3 km/h (2 Bft)
20.06.2015 14:24 16,3 C 15,0 C 67 % 0 lf 1020,3 hPa 0,0 l/m 0 min 0 min 168 W/m 10,5 km/h (2 Bft)
20.06.2015 14:26 16,3 C 14,4 C 66 % 0 lf 1020,4 hPa 0,0 l/m 0 min 0 min 169 W/m 14,6 km/h (3 Bft)
20.06.2015 14:28 16,2 C 14,4 C 65 % 0 lf 1020,4 hPa 0,0 l/m 0 min 0 min 174 W/m 14,6 km/h (3 Bft)
20.06.2015 14:30 16,1 C 14,4 C 65 % 0 lf 1020,4 hPa 0,0 l/m 0 min 0 min 179 W/m 12,6 km/h (3 Bft)
20.06.2015 14:32 16,1 C 14,4 C 65 % 0 lf 1020,4 hPa 0,0 l/m 0 min 0 min 189 W/m 12,6 km/h (3 Bft)
20.06.2015 14:34 16,0 C 14,4 C 65 % 0 lf 1020,4 hPa 0,0 l/m 0 min 0 min 203 W/m 12,6 km/h (3 Bft)
20.06.2015 14:36 16,0 C 14,4 C 67 % 0 lf 1020,3 hPa 0,0 l/m 0 min 0 min 213 W/m 14,6 km/h (3 Bft)
20.06.2015 14:38 15,9 C 14,4 C 67 % 0 lf 1020,3 hPa 0,0 l/m 0 min 0 min 219 W/m 8,4 km/h (2 Bft)
20.06.2015 14:40 15,9 C 14,4 C 67 % 0 lf 1020,4 hPa 0,0 l/m 0 min 0 min 221 W/m 12,6 km/h (3 Bft)
20.06.2015 14:42 15,9 C 15,0 C 68 % 0 lf 1020,4 hPa 0,0 l/m 0 min 0 min 221 W/m 8,4 km/h (2 Bft)
20.06.2015 14:44 15,9 C 14,4 C 67 % 0 lf 1020,3 hPa 0,0 l/m 0 min 0 min 221 W/m 10,5 km/h (2 Bft)
20.06.2015 14:46 15,9 C 15,0 C 67 % 0 lf 1020,4 hPa 0,0 l/m 0 min 0 min 218 W/m 16,7 km/h (3 Bft)
20.06.2015 14:48 15,9 C 15,0 C 67 % 0 lf 1020,3 hPa 0,0 l/m 0 min 0 min 210 W/m 12,6 km/h (3 Bft)
20.06.2015 14:50 15,9 C 14,4 C 67 % 0 lf 1020,4 hPa 0,0 l/m 0 min 0 min 196 W/m 14,6 km/h (3 Bft)
20.06.2015 14:52 15,9 C 14,4 C 67 % 0 lf 1020,3 hPa 0,0 l/m 0 min 0 min 181 W/m 8,4 km/h (2 Bft)
20.06.2015 14:54 15,8 C 14,4 C 67 % 0 lf 1020,4 hPa 0,0 l/m 0 min 0 min 167 W/m 8,4 km/h (2 Bft)
20.06.2015 14:56 15,8 C 14,4 C 67 % 0 lf 1020,4 hPa 0,0 l/m 0 min 0 min 152 W/m 10,5 km/h (2 Bft)
20.06.2015 14:58 15,8 C 14,4 C 68 % 0 lf 1020,4 hPa 0,0 l/m 0 min 0 min 141 W/m 14,6 km/h (3 Bft)
20.06.2015 15:00 15,8 C 14,4 C 67 % 0 lf 1020,4 hPa 0,0 l/m 0 min 0 min 139 W/m 8,4 km/h (2 Bft)
20.06.2015 15:02 15,8 C 13,9 C 67 % 0 lf 1020,3 hPa 0,0 l/m 0 min 0 min 140 W/m 12,6 km/h (3 Bft)
20.06.2015 15:04 15,8 C 13,9 C 68 % 0 lf 1020,3 hPa 0,0 l/m 0 min 0 min 139 W/m 14,6 km/h (3 Bft)
20.06.2015 15:06 15,7 C 14,4 C 68 % 0 lf 1020,3 hPa 0,0 l/m 0 min 0 min 141 W/m 12,6 km/h (3 Bft)
20.06.2015 15:08 15,7 C 14,4 C 68 % 0 lf 1020,3 hPa 0,0 l/m 0 min 0 min 142 W/m 14,6 km/h (3 Bft)
20.06.2015 15:10 15,7 C 14,4 C 68 % 0 lf 1020,3 hPa 0,0 l/m 0 min 0 min 148 W/m 10,5 km/h (2 Bft)
20.06.2015 15:12 15,7 C 14,4 C 68 % 0 lf 1020,3 hPa 0,0 l/m 0 min 0 min 156 W/m 16,7 km/h (3 Bft)
20.06.2015 15:14 15,7 C 14,4 C 68 % 0 lf 1020,3 hPa 0,0 l/m 0 min 0 min 163 W/m 12,6 km/h (3 Bft)
20.06.2015 15:16 15,7 C 14,4 C 69 % 0 lf 1020,4 hPa 0,0 l/m 0 min 0 min 177 W/m 12,6 km/h (3 Bft)
20.06.2015 15:18 15,7 C 14,4 C 69 % 0 lf 1020,3 hPa 0,0 l/m 0 min 0 min 194 W/m 10,5 km/h (2 Bft)
20.06.2015 15:20 15,6 C 14,4 C 68 % 0 lf 1020,3 hPa 0,0 l/m 0 min 0 min 206 W/m 10,5 km/h (2 Bft)
20.06.2015 15:22 15,6 C 14,4 C 68 % 0 lf 1020,3 hPa 0,0 l/m 0 min 0 min 216 W/m 10,5 km/h (2 Bft)
20.06.2015 15:24 15,6 C 14,4 C 67 % 0 lf 1020,3 hPa 0,0 l/m 0 min 0 min 223 W/m 10,5 km/h (2 Bft)
20.06.2015 15:26 15,6 C 15,0 C 67 % 0 lf 1020,3 hPa 0,0 l/m 0 min 0 min 230 W/m 14,6 km/h (3 Bft)
20.06.2015 15:28 15,6 C 15,0 C 67 % 0 lf 1020,3 hPa 0,0 l/m 0 min 0 min 226 W/m 14,6 km/h (3 Bft)
20.06.2015 15:30 15,6 C 15,0 C 67 % 0 lf 1020,3 hPa 0,0 l/m 0 min 0 min 212 W/m 10,5 km/h (2 Bft)
20.06.2015 15:32 15,6 C 15,0 C 68 % 0 lf 1020,3 hPa 0,0 l/m 0 min 0 min 228 W/m 12,6 km/h (3 Bft)
20.06.2015 15:34 15,6 C 15,0 C 69 % 0 lf 1020,3 hPa 0,0 l/m 0 min 0 min 239 W/m 12,6 km/h (3 Bft)
20.06.2015 15:36 15,7 C 15,0 C 70 % 0 lf 1020,3 hPa 0,0 l/m 0 min 0 min 241 W/m 14,6 km/h (3 Bft)
20.06.2015 15:38 15,7 C 15,0 C 69 % 0 lf 1020,3 hPa 0,0 l/m 0 min 0 min 235 W/m 14,6 km/h (3 Bft)
20.06.2015 15:40 15,7 C 15,0 C 69 % 0 lf 1020,3 hPa 0,0 l/m 0 min 0 min 217 W/m 16,7 km/h (3 Bft)
20.06.2015 15:42 15,7 C 15,0 C 69 % 0 lf 1020,4 hPa 0,0 l/m 0 min 0 min 216 W/m 18,8 km/h (3 Bft)
20.06.2015 15:44 15,8 C 15,0 C 69 % 0 lf 1020,4 hPa 0,0 l/m 0 min 0 min 220 W/m 14,6 km/h (3 Bft)
20.06.2015 15:46 15,8 C 15,0 C 69 % 0 lf 1020,4 hPa 0,0 l/m 0 min 0 min 221 W/m 18,8 km/h (3 Bft)
20.06.2015 15:48 15,8 C 15,0 C 67 % 0 lf 1020,4 hPa 0,0 l/m 0 min 0 min 219 W/m 20,9 km/h (4 Bft)
20.06.2015 15:50 15,8 C 15,0 C 67 % 0 lf 1020,4 hPa 0,0 l/m 0 min 0 min 216 W/m 14,6 km/h (3 Bft)
20.06.2015 15:52 15,8 C 15,0 C 68 % 0 lf 1020,4 hPa 0,0 l/m 0 min 0 min 218 W/m 12,6 km/h (3 Bft)
20.06.2015 15:54 15,8 C 15,0 C 67 % 0 lf 1020,4 hPa 0,0 l/m 0 min 0 min 226 W/m 10,5 km/h (2 Bft)
20.06.2015 15:56 15,8 C 15,0 C 68 % 0 lf 1020,3 hPa 0,0 l/m 0 min 0 min 229 W/m 6,3 km/h (2 Bft)
20.06.2015 15:58 15,9 C 15,0 C 69 % 0 lf 1020,4 hPa 0,0 l/m 0 min 0 min 226 W/m 12,6 km/h (3 Bft)
20.06.2015 16:00 15,9 C 15,0 C 69 % 0 lf 1020,4 hPa 0,0 l/m 0 min 0 min 227 W/m 14,6 km/h (3 Bft)
20.06.2015 16:02 15,9 C 15,0 C 70 % 0 lf 1020,4 hPa 0,0 l/m 0 min 0 min 233 W/m 12,6 km/h (3 Bft)
20.06.2015 16:04 15,9 C 15,0 C 69 % 0 lf 1020,4 hPa 0,0 l/m 0 min 0 min 239 W/m 16,7 km/h (3 Bft)
20.06.2015 16:06 16,0 C 15,0 C 70 % 0 lf 1020,4 hPa 0,0 l/m 0 min 0 min 239 W/m 16,7 km/h (3 Bft)
20.06.2015 16:08 16,0 C 15,0 C 69 % 0 lf 1020,5 hPa 0,0 l/m 0 min 0 min 232 W/m 14,6 km/h (3 Bft)
20.06.2015 16:10 16,0 C 15,0 C 68 % 0 lf 1020,4 hPa 0,0 l/m 0 min 0 min 220 W/m 14,6 km/h (3 Bft)
20.06.2015 16:12 16,0 C 15,0 C 68 % 0 lf 1020,5 hPa 0,0 l/m 0 min 0 min 211 W/m 14,6 km/h (3 Bft)
20.06.2015 16:14 16,1 C 15,0 C 68 % 0 lf 1020,5 hPa 0,0 l/m 0 min 0 min 216 W/m 16,7 km/h (3 Bft)
20.06.2015 16:16 16,0 C 15,0 C 66 % 0 lf 1020,5 hPa 0,0 l/m 0 min 0 min 217 W/m 14,6 km/h (3 Bft)
20.06.2015 16:18 16,0 C 15,0 C 66 % 0 lf 1020,5 hPa 0,0 l/m 0 min 0 min 212 W/m 8,4 km/h (2 Bft)
20.06.2015 16:20 16,0 C 15,0 C 67 % 0 lf 1020,4 hPa 0,0 l/m 0 min 0 min 207 W/m 8,4 km/h (2 Bft)
20.06.2015 16:22 16,0 C 15,0 C 67 % 0 lf 1020,4 hPa 0,0 l/m 0 min 0 min 207 W/m 16,7 km/h (3 Bft)
20.06.2015 16:24 16,0 C 15,0 C 67 % 0 lf 1020,4 hPa 0,0 l/m 0 min 0 min 207 W/m 16,7 km/h (3 Bft)
20.06.2015 16:26 16,0 C 15,0 C 67 % 0 lf 1020,4 hPa 0,0 l/m 0 min 0 min 206 W/m 18,8 km/h (3 Bft)
20.06.2015 16:28 16,0 C 15,0 C 67 % 0 lf 1020,5 hPa 0,0 l/m 0 min 0 min 204 W/m 8,4 km/h (2 Bft)
20.06.2015 16:30 16,0 C 15,0 C 67 % 0 lf 1020,5 hPa 0,0 l/m 0 min 0 min 203 W/m 14,6 km/h (3 Bft)
20.06.2015 16:32 16,0 C 15,0 C 67 % 0 lf 1020,5 hPa 0,0 l/m 0 min 0 min 203 W/m 10,5 km/h (2 Bft)
20.06.2015 16:34 16,0 C 15,0 C 67 % 0 lf 1020,5 hPa 0,0 l/m 0 min 0 min 206 W/m 12,6 km/h (3 Bft)
20.06.2015 16:36 16,0 C 15,0 C 68 % 0 lf 1020,4 hPa 0,0 l/m 0 min 0 min 203 W/m 8,4 km/h (2 Bft)
20.06.2015 16:38 16,0 C 15,0 C 68 % 0 lf 1020,4 hPa 0,0 l/m 0 min 0 min 197 W/m 14,6 km/h (3 Bft)
20.06.2015 16:40 16,0 C 15,0 C 66 % 0 lf 1020,5 hPa 0,0 l/m 0 min 0 min 193 W/m 16,7 km/h (3 Bft)
20.06.2015 16:42 16,0 C 15,0 C 66 % 0 lf 1020,4 hPa 0,0 l/m 0 min 0 min 191 W/m 12,6 km/h (3 Bft)
20.06.2015 16:44 16,0 C 15,0 C 67 % 0 lf 1020,5 hPa 0,0 l/m 0 min 0 min 189 W/m 14,6 km/h (3 Bft)
20.06.2015 16:46 16,0 C 15,0 C 67 % 0 lf 1020,5 hPa 0,0 l/m 0 min 0 min 186 W/m 12,6 km/h (3 Bft)
20.06.2015 16:48 16,0 C 15,0 C 67 % 0 lf 1020,4 hPa 0,0 l/m 0 min 0 min 184 W/m 12,6 km/h (3 Bft)
20.06.2015 16:50 16,0 C 15,0 C 67 % 0 lf 1020,4 hPa 0,0 l/m 0 min 0 min 188 W/m 10,5 km/h (2 Bft)
20.06.2015 16:52 16,0 C 15,0 C 67 % 0 lf 1020,4 hPa 0,0 l/m 0 min 0 min 189 W/m 8,4 km/h (2 Bft)
20.06.2015 16:54 15,9 C 14,4 C 67 % 0 lf 1020,4 hPa 0,0 l/m 0 min 0 min 185 W/m 6,3 km/h (2 Bft)
20.06.2015 16:56 15,9 C 14,4 C 67 % 0 lf 1020,4 hPa 0,0 l/m 0 min 0 min 180 W/m 10,5 km/h (2 Bft)
20.06.2015 16:58 15,9 C 14,4 C 68 % 0 lf 1020,3 hPa 0,0 l/m 0 min 0 min 183 W/m 10,5 km/h (2 Bft)
20.06.2015 17:00 15,9 C 14,4 C 69 % 0 lf 1020,4 hPa 0,0 l/m 0 min 0 min 183 W/m 14,6 km/h (3 Bft)
20.06.2015 17:02 15,9 C 14,4 C 69 % 0 lf 1020,4 hPa 0,0 l/m 0 min 0 min 181 W/m 14,6 km/h (3 Bft)
20.06.2015 17:04 15,9 C 14,4 C 69 % 0 lf 1020,4 hPa 0,0 l/m 0 min 0 min 178 W/m 14,6 km/h (3 Bft)
20.06.2015 17:06 15,9 C 14,4 C 69 % 0 lf 1020,4 hPa 0,0 l/m 0 min 0 min 176 W/m 16,7 km/h (3 Bft)
20.06.2015 17:08 15,9 C 14,4 C 69 % 0 lf 1020,4 hPa 0,0 l/m 0 min 0 min 175 W/m 10,5 km/h (2 Bft)
20.06.2015 17:10 15,8 C 14,4 C 69 % 0 lf 1020,4 hPa 0,0 l/m 0 min 0 min 175 W/m 12,6 km/h (3 Bft)
20.06.2015 17:12 15,8 C 14,4 C 70 % 0 lf 1020,4 hPa 0,0 l/m 0 min 0 min 171 W/m 10,5 km/h (2 Bft)
20.06.2015 17:14 15,8 C 14,4 C 69 % 0 lf 1020,3 hPa 0,0 l/m 0 min 0 min 167 W/m 8,4 km/h (2 Bft)
20.06.2015 17:16 15,8 C 14,4 C 70 % 0 lf 1020,3 hPa 0,0 l/m 0 min 0 min 162 W/m 8,4 km/h (2 Bft)
20.06.2015 17:18 15,8 C 14,4 C 69 % 0 lf 1020,3 hPa 0,0 l/m 0 min 0 min 160 W/m 10,5 km/h (2 Bft)
20.06.2015 17:20 15,8 C 14,4 C 70 % 0 lf 1020,3 hPa 0,0 l/m 0 min 0 min 164 W/m 6,3 km/h (2 Bft)
20.06.2015 17:22 15,8 C 14,4 C 70 % 0 lf 1020,3 hPa 0,0 l/m 0 min 0 min 170 W/m 8,4 km/h (2 Bft)
20.06.2015 17:24 15,8 C 15,0 C 70 % 0 lf 1020,3 hPa 0,0 l/m 0 min 0 min 180 W/m 10,5 km/h (2 Bft)
20.06.2015 17:26 15,8 C 15,0 C 69 % 0 lf 1020,2 hPa 0,0 l/m 0 min 0 min 190 W/m 8,4 km/h (2 Bft)
20.06.2015 17:28 15,8 C 15,0 C 68 % 0 lf 1020,2 hPa 0,0 l/m 0 min 0 min 221 W/m 6,3 km/h (2 Bft)
20.06.2015 17:30 15,8 C 15,0 C 69 % 0 lf 1020,3 hPa 0,0 l/m 0 min 0 min 255 W/m 10,5 km/h (2 Bft)
20.06.2015 17:32 15,8 C 15,6 C 69 % 0 lf 1020,3 hPa 0,0 l/m 0 min 0 min 285 W/m 12,6 km/h (3 Bft)
20.06.2015 17:34 15,8 C 15,6 C 68 % 0 lf 1020,2 hPa 0,0 l/m 2 min 0 min 299 W/m 10,5 km/h (2 Bft)
20.06.2015 17:36 15,9 C 15,6 C 68 % 0 lf 1020,2 hPa 0,0 l/m 2 min 0 min 306 W/m 10,5 km/h (2 Bft)
20.06.2015 17:38 15,9 C 15,6 C 68 % 0 lf 1020,2 hPa 0,0 l/m 2 min 0 min 318 W/m 12,6 km/h (3 Bft)
20.06.2015 17:40 15,9 C 15,6 C 68 % 0 lf 1020,2 hPa 0,0 l/m 2 min 0 min 348 W/m 8,4 km/h (2 Bft)
20.06.2015 17:42 16,0 C 15,6 C 67 % 0 lf 1020,1 hPa 0,0 l/m 2 min 0 min 360 W/m 8,4 km/h (2 Bft)
20.06.2015 17:44 16,1 C 16,1 C 68 % 0 lf 1020,1 hPa 0,0 l/m 2 min 0 min 340 W/m 8,4 km/h (2 Bft)
20.06.2015 17:46 16,1 C 16,1 C 68 % 0 lf 1020,1 hPa 0,0 l/m 2 min 0 min 299 W/m 8,4 km/h (2 Bft)
20.06.2015 17:48 16,2 C 16,1 C 68 % 0 lf 1020,1 hPa 0,0 l/m 2 min 0 min 275 W/m 6,3 km/h (2 Bft)
20.06.2015 17:50 16,3 C 16,1 C 68 % 0 lf 1020,1 hPa 0,0 l/m 0 min 0 min 265 W/m 14,6 km/h (3 Bft)
20.06.2015 17:52 16,3 C 16,1 C 68 % 0 lf 1020,0 hPa 0,0 l/m 0 min 0 min 252 W/m 8,4 km/h (2 Bft)
20.06.2015 17:54 16,4 C 16,1 C 68 % 0 lf 1020,0 hPa 0,0 l/m 0 min 0 min 233 W/m 10,5 km/h (2 Bft)
20.06.2015 17:56 16,4 C 15,6 C 67 % 0 lf 1020,1 hPa 0,0 l/m 0 min 0 min 217 W/m 10,5 km/h (2 Bft)
20.06.2015 17:58 16,4 C 15,6 C 67 % 0 lf 1020,0 hPa 0,0 l/m 0 min 0 min 210 W/m 4,2 km/h (1 Bft)
20.06.2015 18:00 16,4 C 15,6 C 67 % 0 lf 1020,1 hPa 0,0 l/m 0 min 0 min 200 W/m 8,4 km/h (2 Bft)
20.06.2015 18:03 16,4 C 15,0 C 67 % 0 lf 1020,0 hPa 0,0 l/m 0 min 0 min 171 W/m 10,5 km/h (2 Bft)
20.06.2015 18:05 16,4 C 15,0 C 66 % 0 lf 1020,0 hPa 0,0 l/m 0 min 0 min 179 W/m 10,5 km/h (2 Bft)
20.06.2015 18:06 16,4 C 15,0 C 66 % 0 lf 1020,0 hPa 0,0 l/m 0 min 0 min 167 W/m 10,5 km/h (2 Bft)
20.06.2015 18:08 16,4 C 15,0 C 66 % 0 lf 1020,0 hPa 0,0 l/m 0 min 0 min 163 W/m 10,5 km/h (2 Bft)
20.06.2015 18:10 16,4 C 15,0 C 67 % 0 lf 1020,1 hPa 0,0 l/m 0 min 0 min 157 W/m 8,4 km/h (2 Bft)
20.06.2015 18:12 16,4 C 15,0 C 67 % 0 lf 1020,0 hPa 0,0 l/m 0 min 0 min 148 W/m 8,4 km/h (2 Bft)
20.06.2015 18:14 16,4 C 15,0 C 68 % 0 lf 1020,1 hPa 0,0 l/m 0 min 0 min 146 W/m 6,3 km/h (2 Bft)
20.06.2015 18:16 16,4 C 15,0 C 68 % 0 lf 1020,0 hPa 0,0 l/m 0 min 0 min 139 W/m 6,3 km/h (2 Bft)
20.06.2015 18:18 16,4 C 15,0 C 67 % 0 lf 1019,9 hPa 0,0 l/m 0 min 0 min 131 W/m 4,2 km/h (1 Bft)
20.06.2015 18:20 16,3 C 15,0 C 67 % 0 lf 1020,0 hPa 0,0 l/m 0 min 0 min 128 W/m 6,3 km/h (2 Bft)
20.06.2015 18:22 16,3 C 15,0 C 67 % 0 lf 1020,0 hPa 0,0 l/m 0 min 0 min 125 W/m 6,3 km/h (2 Bft)
20.06.2015 18:24 16,3 C 14,4 C 67 % 0 lf 1020,0 hPa 0,0 l/m 0 min 0 min 121 W/m 8,4 km/h (2 Bft)
20.06.2015 18:26 16,3 C 14,4 C 67 % 0 lf 1020,1 hPa 0,0 l/m 0 min 0 min 113 W/m 10,5 km/h (2 Bft)
20.06.2015 18:28 16,3 C 14,4 C 67 % 0 lf 1020,1 hPa 0,0 l/m 0 min 0 min 106 W/m 6,3 km/h (2 Bft)
20.06.2015 18:30 16,2 C 14,4 C 67 % 0 lf 1020,2 hPa 0,0 l/m 0 min 0 min 99 W/m 12,6 km/h (3 Bft)
20.06.2015 18:32 16,2 C 14,4 C 67 % 0 lf 1020,1 hPa 0,0 l/m 0 min 0 min 94 W/m 10,5 km/h (2 Bft)
20.06.2015 18:34 16,2 C 14,4 C 68 % 0 lf 1020,1 hPa 0,0 l/m 0 min 0 min 88 W/m 14,6 km/h (3 Bft)
20.06.2015 18:36 16,1 C 14,4 C 68 % 0 lf 1020,1 hPa 0,0 l/m 0 min 0 min 83 W/m 14,6 km/h (3 Bft)
20.06.2015 18:38 16,1 C 14,4 C 68 % 0 lf 1020,2 hPa 0,0 l/m 0 min 0 min 90 W/m 10,5 km/h (2 Bft)
20.06.2015 18:40 16,1 C 14,4 C 69 % 0 lf 1020,1 hPa 0,0 l/m 0 min 0 min 98 W/m 8,4 km/h (2 Bft)
20.06.2015 18:42 16,0 C 14,4 C 68 % 0 lf 1020,1 hPa 0,0 l/m 0 min 0 min 110 W/m 10,5 km/h (2 Bft)
20.06.2015 18:44 16,0 C 14,4 C 68 % 0 lf 1020,0 hPa 0,0 l/m 0 min 0 min 116 W/m 12,6 km/h (3 Bft)
20.06.2015 18:46 15,9 C 14,4 C 68 % 0 lf 1020,0 hPa 0,0 l/m 0 min 0 min 116 W/m 6,3 km/h (2 Bft)
20.06.2015 18:48 15,9 C 14,4 C 68 % 0 lf 1020,0 hPa 0,0 l/m 0 min 0 min 124 W/m 4,2 km/h (1 Bft)
20.06.2015 18:50 15,9 C 14,4 C 68 % 0 lf 1020,1 hPa 0,0 l/m 0 min 0 min 134 W/m 6,3 km/h (2 Bft)
20.06.2015 18:52 15,9 C 14,4 C 68 % 0 lf 1020,0 hPa 0,0 l/m 0 min 0 min 140 W/m 8,4 km/h (2 Bft)
20.06.2015 18:54 15,9 C 14,4 C 69 % 0 lf 1020,0 hPa 0,0 l/m 0 min 0 min 145 W/m 6,3 km/h (2 Bft)
20.06.2015 18:56 15,9 C 15,0 C 69 % 0 lf 1020,0 hPa 0,0 l/m 0 min 0 min 144 W/m 4,2 km/h (1 Bft)
20.06.2015 18:58 15,9 C 15,0 C 69 % 0 lf 1020,1 hPa 0,0 l/m 0 min 0 min 136 W/m 6,3 km/h (2 Bft)
20.06.2015 19:00 15,9 C 15,0 C 69 % 0 lf 1020,1 hPa 0,0 l/m 0 min 0 min 132 W/m 4,2 km/h (1 Bft)
20.06.2015 19:02 15,9 C 14,4 C 69 % 0 lf 1020,0 hPa 0,0 l/m 0 min 0 min 127 W/m 6,3 km/h (2 Bft)
20.06.2015 19:04 15,9 C 15,0 C 69 % 0 lf 1020,0 hPa 0,0 l/m 0 min 0 min 123 W/m 4,2 km/h (1 Bft)
20.06.2015 19:06 15,8 C 14,4 C 68 % 0 lf 1020,0 hPa 0,0 l/m 0 min 0 min 118 W/m 4,2 km/h (1 Bft)
20.06.2015 19:08 15,8 C 14,4 C 68 % 0 lf 1020,0 hPa 0,0 l/m 0 min 0 min 113 W/m 10,5 km/h (2 Bft)
20.06.2015 19:10 15,8 C 14,4 C 68 % 0 lf 1019,9 hPa 0,0 l/m 0 min 0 min 110 W/m 8,4 km/h (2 Bft)
20.06.2015 19:12 15,8 C 14,4 C 68 % 0 lf 1019,9 hPa 0,0 l/m 0 min 0 min 110 W/m 8,4 km/h (2 Bft)
20.06.2015 19:14 15,8 C 14,4 C 69 % 0 lf 1019,9 hPa 0,0 l/m 0 min 0 min 107 W/m 8,4 km/h (2 Bft)
20.06.2015 19:16 15,8 C 14,4 C 70 % 0 lf 1019,9 hPa 0,0 l/m 0 min 0 min 106 W/m 6,3 km/h (2 Bft)
20.06.2015 19:18 15,8 C 14,4 C 69 % 0 lf 1019,9 hPa 0,0 l/m 0 min 0 min 106 W/m 12,6 km/h (3 Bft)
20.06.2015 19:20 15,8 C 14,4 C 68 % 0 lf 1019,9 hPa 0,0 l/m 0 min 0 min 113 W/m 10,5 km/h (2 Bft)
20.06.2015 19:22 15,8 C 14,4 C 69 % 0 lf 1019,9 hPa 0,0 l/m 0 min 0 min 125 W/m 8,4 km/h (2 Bft)
20.06.2015 19:24 15,8 C 14,4 C 69 % 0 lf 1019,9 hPa 0,0 l/m 0 min 0 min 136 W/m 4,2 km/h (1 Bft)
20.06.2015 19:26 15,8 C 14,4 C 69 % 0 lf 1019,9 hPa 0,0 l/m 0 min 0 min 141 W/m 4,2 km/h (1 Bft)
20.06.2015 19:28 15,8 C 14,4 C 69 % 0 lf 1019,8 hPa 0,0 l/m 0 min 0 min 139 W/m 6,3 km/h (2 Bft)
20.06.2015 19:30 15,8 C 14,4 C 69 % 0 lf 1019,9 hPa 0,0 l/m 0 min 0 min 133 W/m 6,3 km/h (2 Bft)
20.06.2015 19:32 15,8 C 14,4 C 69 % 0 lf 1019,8 hPa 0,0 l/m 0 min 0 min 128 W/m 6,3 km/h (2 Bft)
20.06.2015 19:34 15,8 C 14,4 C 69 % 0 lf 1019,8 hPa 0,0 l/m 0 min 0 min 121 W/m 8,4 km/h (2 Bft)
20.06.2015 19:36 15,8 C 14,4 C 69 % 0 lf 1019,9 hPa 0,0 l/m 0 min 0 min 113 W/m 6,3 km/h (2 Bft)
20.06.2015 19:38 15,7 C 14,4 C 69 % 0 lf 1019,9 hPa 0,0 l/m 0 min 0 min 106 W/m 6,3 km/h (2 Bft)
20.06.2015 19:40 15,7 C 14,4 C 69 % 0 lf 1019,8 hPa 0,0 l/m 0 min 0 min 104 W/m 6,3 km/h (2 Bft)
20.06.2015 19:42 15,7 C 14,4 C 69 % 0 lf 1019,8 hPa 0,0 l/m 0 min 0 min 100 W/m 6,3 km/h (2 Bft)
20.06.2015 19:44 15,7 C 14,4 C 69 % 0 lf 1019,8 hPa 0,0 l/m 0 min 0 min 98 W/m 6,3 km/h (2 Bft)
20.06.2015 19:46 15,7 C 14,4 C 69 % 0 lf 1019,8 hPa 0,0 l/m 0 min 0 min 97 W/m 4,2 km/h (1 Bft)
20.06.2015 19:48 15,7 C 14,4 C 69 % 0 lf 1019,8 hPa 0,0 l/m 0 min 0 min 98 W/m 6,3 km/h (2 Bft)
20.06.2015 19:50 15,7 C 13,9 C 69 % 0 lf 1019,8 hPa 0,0 l/m 0 min 0 min 98 W/m 8,4 km/h (2 Bft)
20.06.2015 19:52 15,7 C 13,9 C 69 % 0 lf 1019,8 hPa 0,0 l/m 0 min 0 min 97 W/m 4,2 km/h (1 Bft)
20.06.2015 19:54 15,7 C 13,9 C 69 % 0 lf 1019,7 hPa 0,0 l/m 0 min 0 min 95 W/m 4,2 km/h (1 Bft)
20.06.2015 19:56 15,7 C 13,9 C 69 % 0 lf 1019,7 hPa 0,0 l/m 0 min 0 min 90 W/m 2,1 km/h (1 Bft)
20.06.2015 19:58 15,7 C 13,9 C 69 % 0 lf 1019,7 hPa 0,0 l/m 0 min 0 min 86 W/m 2,1 km/h (1 Bft)
20.06.2015 20:00 15,7 C 13,9 C 69 % 0 lf 1019,7 hPa 0,0 l/m 0 min 0 min 82 W/m 4,2 km/h (1 Bft)
20.06.2015 20:02 15,6 C 13,9 C 70 % 0 lf 1019,7 hPa 0,0 l/m 0 min 0 min 76 W/m 4,2 km/h (1 Bft)
20.06.2015 20:04 15,7 C 13,9 C 70 % 0 lf 1019,7 hPa 0,0 l/m 0 min 0 min 72 W/m 4,2 km/h (1 Bft)
20.06.2015 20:06 15,6 C 13,9 C 70 % 0 lf 1019,7 hPa 0,0 l/m 0 min 0 min 66 W/m 6,3 km/h (2 Bft)
20.06.2015 20:08 15,6 C 13,9 C 69 % 0 lf 1019,7 hPa 0,0 l/m 0 min 0 min 62 W/m 4,2 km/h (1 Bft)
20.06.2015 20:10 15,6 C 13,9 C 70 % 0 lf 1019,7 hPa 0,0 l/m 0 min 0 min 58 W/m 2,1 km/h (1 Bft)
20.06.2015 20:12 15,6 C 13,9 C 70 % 0 lf 1019,6 hPa 0,0 l/m 0 min 0 min 53 W/m 4,2 km/h (1 Bft)
20.06.2015 20:14 15,6 C 13,9 C 70 % 0 lf 1019,7 hPa 0,0 l/m 0 min 0 min 49 W/m 4,2 km/h (1 Bft)
20.06.2015 20:16 15,6 C 13,9 C 70 % 0 lf 1019,7 hPa 0,0 l/m 0 min 0 min 45 W/m 6,3 km/h (2 Bft)
20.06.2015 20:18 15,6 C 13,9 C 70 % 0 lf 1019,6 hPa 0,0 l/m 0 min 0 min 37 W/m 4,2 km/h (1 Bft)
20.06.2015 20:20 15,6 C 13,9 C 70 % 0 lf 1019,6 hPa 0,0 l/m 0 min 0 min 30 W/m 2,1 km/h (1 Bft)
20.06.2015 20:22 15,6 C 13,3 C 70 % 0 lf 1019,6 hPa 0,0 l/m 0 min 0 min 25 W/m 6,3 km/h (2 Bft)
20.06.2015 20:24 15,5 C 13,3 C 70 % 0 lf 1019,6 hPa 0,0 l/m 0 min 0 min 23 W/m 2,1 km/h (1 Bft)
20.06.2015 20:26 15,5 C 13,3 C 70 % 0 lf 1019,6 hPa 0,0 l/m 0 min 0 min 22 W/m 2,1 km/h (1 Bft)
20.06.2015 20:28 15,5 C 13,3 C 70 % 0 lf 1019,7 hPa 0,0 l/m 0 min 0 min 20 W/m 0,0 km/h (0 Bft)
20.06.2015 20:30 15,4 C 13,3 C 70 % 0 lf 1019,6 hPa 0,0 l/m 0 min 0 min 18 W/m 2,1 km/h (1 Bft)
20.06.2015 20:32 15,4 C 13,3 C 70 % 0 lf 1019,7 hPa 0,0 l/m 0 min 0 min 18 W/m 2,1 km/h (1 Bft)
20.06.2015 20:34 15,4 C 13,3 C 70 % 0 lf 1019,6 hPa 0,0 l/m 0 min 0 min 18 W/m 4,2 km/h (1 Bft)
20.06.2015 20:36 15,4 C 13,3 C 70 % 0 lf 1019,6 hPa 0,0 l/m 0 min 0 min 20 W/m 2,1 km/h (1 Bft)
20.06.2015 20:38 15,4 C 13,3 C 71 % 0 lf 1019,6 hPa 0,0 l/m 0 min 0 min 22 W/m 2,1 km/h (1 Bft)
20.06.2015 20:40 15,4 C 13,3 C 71 % 0 lf 1019,6 hPa 0,0 l/m 0 min 0 min 21 W/m 2,1 km/h (1 Bft)
20.06.2015 20:42 15,4 C 13,3 C 71 % 0 lf 1019,6 hPa 0,0 l/m 0 min 0 min 18 W/m 2,1 km/h (1 Bft)
20.06.2015 20:44 15,3 C 12,8 C 71 % 0 lf 1019,6 hPa 0,0 l/m 0 min 0 min 15 W/m 2,1 km/h (1 Bft)
20.06.2015 20:46 15,3 C 12,8 C 71 % 0 lf 1019,6 hPa 0,0 l/m 0 min 0 min 14 W/m 2,1 km/h (1 Bft)
20.06.2015 20:48 15,3 C 12,8 C 71 % 0 lf 1019,6 hPa 0,0 l/m 0 min 0 min 14 W/m 2,1 km/h (1 Bft)
20.06.2015 20:50 15,3 C 12,8 C 71 % 0 lf 1019,6 hPa 0,0 l/m 0 min 0 min 14 W/m 4,2 km/h (1 Bft)
20.06.2015 20:52 15,3 C 12,8 C 71 % 0 lf 1019,6 hPa 0,0 l/m 0 min 0 min 16 W/m 2,1 km/h (1 Bft)
20.06.2015 20:54 15,2 C 12,8 C 72 % 0 lf 1019,5 hPa 0,0 l/m 0 min 0 min 16 W/m 2,1 km/h (1 Bft)
20.06.2015 20:56 15,2 C 12,8 C 72 % 0 lf 1019,5 hPa 0,0 l/m 0 min 0 min 14 W/m 2,1 km/h (1 Bft)
20.06.2015 20:58 15,2 C 12,8 C 72 % 0 lf 1019,6 hPa 0,0 l/m 0 min 0 min 13 W/m 2,1 km/h (1 Bft)
20.06.2015 21:00 15,2 C 12,8 C 72 % 0 lf 1019,6 hPa 0,0 l/m 0 min 0 min 12 W/m 2,1 km/h (1 Bft)
20.06.2015 21:02 15,2 C 12,8 C 72 % 0 lf 1019,5 hPa 0,0 l/m 0 min 0 min 11 W/m 0,0 km/h (0 Bft)
20.06.2015 21:04 15,2 C 12,8 C 72 % 0 lf 1019,5 hPa 0,0 l/m 0 min 0 min 9 W/m 0,0 km/h (0 Bft)
20.06.2015 21:06 15,1 C 12,8 C 72 % 0 lf 1019,5 hPa 0,0 l/m 0 min 0 min 9 W/m 2,1 km/h (1 Bft)
20.06.2015 21:08 15,1 C 12,8 C 72 % 0 lf 1019,5 hPa 0,0 l/m 0 min 0 min 9 W/m 2,1 km/h (1 Bft)
20.06.2015 21:10 15,1 C 12,8 C 73 % 0 lf 1019,5 hPa 0,0 l/m 0 min 0 min 9 W/m 2,1 km/h (1 Bft)
20.06.2015 21:12 15,1 C 12,8 C 73 % 0 lf 1019,6 hPa 0,0 l/m 0 min 0 min 7 W/m 2,1 km/h (1 Bft)
20.06.2015 21:14 15,1 C 12,8 C 73 % 0 lf 1019,5 hPa 0,0 l/m 0 min 0 min 7 W/m 2,1 km/h (1 Bft)
20.06.2015 21:16 15,0 C 12,8 C 73 % 0 lf 1019,5 hPa 0,0 l/m 0 min 0 min 7 W/m 2,1 km/h (1 Bft)
20.06.2015 21:18 15,0 C 12,8 C 73 % 0 lf 1019,5 hPa 0,0 l/m 0 min 0 min 7 W/m 2,1 km/h (1 Bft)
20.06.2015 21:20 15,0 C 12,8 C 73 % 0 lf 1019,5 hPa 0,0 l/m 0 min 0 min 7 W/m 2,1 km/h (1 Bft)
20.06.2015 21:22 14,9 C 12,8 C 73 % 0 lf 1019,5 hPa 0,0 l/m 0 min 0 min 7 W/m 0,0 km/h (0 Bft)
20.06.2015 21:24 14,9 C 12,8 C 73 % 0 lf 1019,5 hPa 0,0 l/m 0 min 0 min 5 W/m 2,1 km/h (1 Bft)
20.06.2015 21:26 14,9 C 12,8 C 73 % 0 lf 1019,5 hPa 0,0 l/m 0 min 0 min 5 W/m 0,0 km/h (0 Bft)
20.06.2015 21:28 14,9 C 12,8 C 73 % 0 lf 1019,5 hPa 0,0 l/m 0 min 0 min 4 W/m 2,1 km/h (1 Bft)
20.06.2015 21:30 14,8 C 12,2 C 73 % 0 lf 1019,5 hPa 0,0 l/m 0 min 0 min 0 W/m 2,1 km/h (1 Bft)
20.06.2015 21:32 14,8 C 12,2 C 74 % 0 lf 1019,5 hPa 0,0 l/m 0 min 0 min 0 W/m 0,0 km/h (0 Bft)
20.06.2015 21:34 14,8 C 12,2 C 74 % 0 lf 1019,6 hPa 0,0 l/m 0 min 0 min 0 W/m 0,0 km/h (0 Bft)
20.06.2015 21:36 14,8 C 12,2 C 74 % 0 lf 1019,6 hPa 0,0 l/m 0 min 0 min 0 W/m 2,1 km/h (1 Bft)
20.06.2015 21:38 14,7 C 12,2 C 74 % 0 lf 1019,6 hPa 0,0 l/m 0 min 0 min 0 W/m 2,1 km/h (1 Bft)
20.06.2015 21:40 14,7 C 12,2 C 74 % 0 lf 1019,6 hPa 0,0 l/m 0 min 0 min 0 W/m 0,0 km/h (0 Bft)
20.06.2015 21:42 14,7 C 12,2 C 74 % 0 lf 1019,7 hPa 0,0 l/m 0 min 0 min 0 W/m 0,0 km/h (0 Bft)
20.06.2015 21:44 14,7 C 12,2 C 74 % 0 lf 1019,6 hPa 0,0 l/m 0 min 0 min 0 W/m 0,0 km/h (0 Bft)
20.06.2015 21:46 14,6 C 12,2 C 74 % 0 lf 1019,6 hPa 0,0 l/m 0 min 0 min 0 W/m 0,0 km/h (0 Bft)
20.06.2015 21:48 14,6 C 12,2 C 75 % 0 lf 1019,7 hPa 0,0 l/m 0 min 0 min 0 W/m 0,0 km/h (0 Bft)
20.06.2015 21:50 14,6 C 12,2 C 75 % 0 lf 1019,7 hPa 0,0 l/m 0 min 0 min 0 W/m 0,0 km/h (0 Bft)
20.06.2015 21:52 14,6 C 12,2 C 75 % 0 lf 1019,7 hPa 0,0 l/m 0 min 0 min 0 W/m 0,0 km/h (0 Bft)
20.06.2015 21:54 14,5 C 12,2 C 75 % 0 lf 1019,7 hPa 0,0 l/m 0 min 0 min 0 W/m 2,1 km/h (1 Bft)
20.06.2015 21:56 14,5 C 12,2 C 75 % 0 lf 1019,8 hPa 0,0 l/m 0 min 0 min 0 W/m 2,1 km/h (1 Bft)
20.06.2015 21:58 14,5 C 12,2 C 75 % 0 lf 1019,7 hPa 0,0 l/m 0 min 0 min 0 W/m 2,1 km/h (1 Bft)
20.06.2015 22:00 14,4 C 12,2 C 75 % 0 lf 1019,7 hPa 0,0 l/m 0 min 0 min 0 W/m 0,0 km/h (0 Bft)
20.06.2015 22:02 14,4 C 12,2 C 76 % 0 lf 1019,7 hPa 0,0 l/m 0 min 0 min 0 W/m 2,1 km/h (1 Bft)
20.06.2015 22:04 14,4 C 12,2 C 76 % 0 lf 1019,7 hPa 0,0 l/m 0 min 0 min 0 W/m 2,1 km/h (1 Bft)
20.06.2015 22:06 14,4 C 12,2 C 76 % 0 lf 1019,7 hPa 0,0 l/m 0 min 0 min 0 W/m 2,1 km/h (1 Bft)
20.06.2015 22:08 14,4 C 12,2 C 76 % 0 lf 1019,7 hPa 0,0 l/m 0 min 0 min 0 W/m 0,0 km/h (0 Bft)
20.06.2015 22:10 14,3 C 12,2 C 76 % 0 lf 1019,7 hPa 0,0 l/m 0 min 0 min 0 W/m 0,0 km/h (0 Bft)
20.06.2015 22:12 14,3 C 12,2 C 76 % 0 lf 1019,8 hPa 0,0 l/m 0 min 0 min 0 W/m 0,0 km/h (0 Bft)
20.06.2015 22:14 14,3 C 12,2 C 76 % 0 lf 1019,7 hPa 0,0 l/m 0 min 0 min 0 W/m 0,0 km/h (0 Bft)
20.06.2015 22:16 14,2 C 12,2 C 76 % 0 lf 1019,8 hPa 0,0 l/m 0 min 0 min 0 W/m 2,1 km/h (1 Bft)
20.06.2015 22:18 14,2 C 11,7 C 76 % 0 lf 1019,7 hPa 0,0 l/m 0 min 0 min 0 W/m 2,1 km/h (1 Bft)
20.06.2015 22:20 14,2 C 11,7 C 77 % 0 lf 1019,7 hPa 0,0 l/m 0 min 0 min 0 W/m 2,1 km/h (1 Bft)
20.06.2015 22:22 14,2 C 11,7 C 77 % 0 lf 1019,6 hPa 0,0 l/m 0 min 0 min 0 W/m 2,1 km/h (1 Bft)
20.06.2015 22:24 14,2 C 11,7 C 77 % 0 lf 1019,7 hPa 0,0 l/m 0 min 0 min 0 W/m 4,2 km/h (1 Bft)
20.06.2015 22:26 14,2 C 11,7 C 77 % 0 lf 1019,7 hPa 0,0 l/m 0 min 0 min 0 W/m 2,1 km/h (1 Bft)
20.06.2015 22:28 14,2 C 11,7 C 77 % 0 lf 1019,6 hPa 0,0 l/m 0 min 0 min 0 W/m 4,2 km/h (1 Bft)
20.06.2015 22:30 14,2 C 11,7 C 78 % 0 lf 1019,6 hPa 0,0 l/m 0 min 0 min 0 W/m 2,1 km/h (1 Bft)
20.06.2015 22:32 14,2 C 11,7 C 78 % 0 lf 1019,6 hPa 0,0 l/m 0 min 0 min 0 W/m 4,2 km/h (1 Bft)
20.06.2015 22:34 14,2 C 11,7 C 78 % 0 lf 1019,6 hPa 0,0 l/m 0 min 0 min 0 W/m 4,2 km/h (1 Bft)
20.06.2015 22:36 14,2 C 11,7 C 78 % 0 lf 1019,6 hPa 0,0 l/m 0 min 0 min 0 W/m 4,2 km/h (1 Bft)
20.06.2015 22:38 14,2 C 11,7 C 78 % 0 lf 1019,6 hPa 0,0 l/m 0 min 0 min 0 W/m 4,2 km/h (1 Bft)
20.06.2015 22:40 14,2 C 11,7 C 79 % 0 lf 1019,5 hPa 0,0 l/m 0 min 0 min 0 W/m 4,2 km/h (1 Bft)
20.06.2015 22:42 14,1 C 11,7 C 79 % 0 lf 1019,5 hPa 0,0 l/m 0 min 0 min 0 W/m 4,2 km/h (1 Bft)
20.06.2015 22:44 14,1 C 11,7 C 79 % 0 lf 1019,6 hPa 0,0 l/m 0 min 0 min 0 W/m 4,2 km/h (1 Bft)
20.06.2015 22:46 14,0 C 11,7 C 79 % 0 lf 1019,5 hPa 0,0 l/m 0 min 2 min 0 W/m 4,2 km/h (1 Bft)
20.06.2015 22:48 14,0 C 11,7 C 79 % 0 lf 1019,5 hPa 0,0 l/m 0 min 0 min 0 W/m 4,2 km/h (1 Bft)
20.06.2015 22:50 13,9 C 11,7 C 79 % 2 lf 1019,5 hPa 0,0 l/m 0 min 2 min 0 W/m 6,3 km/h (2 Bft)
20.06.2015 22:52 13,9 C 11,7 C 79 % 2 lf 1019,5 hPa 0,0 l/m 0 min 2 min 0 W/m 6,3 km/h (2 Bft)
20.06.2015 22:54 13,9 C 11,7 C 80 % 2 lf 1019,5 hPa 0,0 l/m 0 min 0 min 0 W/m 4,2 km/h (1 Bft)
20.06.2015 22:56 13,9 C 11,7 C 80 % 2 lf 1019,5 hPa 0,0 l/m 0 min 2 min 0 W/m 4,2 km/h (1 Bft)
20.06.2015 22:58 13,9 C 11,7 C 80 % 1 lf 1019,5 hPa 0,0 l/m 0 min 2 min 0 W/m 4,2 km/h (1 Bft)
20.06.2015 23:00 13,9 C 11,1 C 80 % 3 lf 1019,5 hPa 0,0 l/m 0 min 2 min 0 W/m 4,2 km/h (1 Bft)
20.06.2015 23:02 13,8 C 11,1 C 81 % 6 lf 1019,5 hPa 0,0 l/m 0 min 2 min 0 W/m 4,2 km/h (1 Bft)
20.06.2015 23:04 13,8 C 11,1 C 81 % 10 lf 1019,5 hPa 0,0 l/m 0 min 2 min 0 W/m 4,2 km/h (1 Bft)
20.06.2015 23:06 13,8 C 11,1 C 81 % 12 lf 1019,5 hPa 0,0 l/m 0 min 2 min 0 W/m 4,2 km/h (1 Bft)
20.06.2015 23:08 13,8 C 11,1 C 81 % 14 lf 1019,5 hPa 0,0 l/m 0 min 2 min 0 W/m 4,2 km/h (1 Bft)
20.06.2015 23:10 13,8 C 11,1 C 81 % 14 lf 1019,5 hPa 0,0 l/m 0 min 2 min 0 W/m 4,2 km/h (1 Bft)
20.06.2015 23:12 13,8 C 11,1 C 81 % 15 lf 1019,5 hPa 0,0 l/m 0 min 2 min 0 W/m 2,1 km/h (1 Bft)
20.06.2015 23:14 13,7 C 11,1 C 81 % 15 lf 1019,4 hPa 0,0 l/m 0 min 2 min 0 W/m 2,1 km/h (1 Bft)
20.06.2015 23:16 13,7 C 10,6 C 81 % 15 lf 1019,5 hPa 0,0 l/m 0 min 2 min 0 W/m 4,2 km/h (1 Bft)
20.06.2015 23:18 13,7 C 10,6 C 81 % 15 lf 1019,4 hPa 0,0 l/m 0 min 2 min 0 W/m 4,2 km/h (1 Bft)
20.06.2015 23:20 13,7 C 10,6 C 81 % 15 lf 1019,5 hPa 0,0 l/m 0 min 2 min 0 W/m 4,2 km/h (1 Bft)
20.06.2015 23:22 13,7 C 10,6 C 82 % 15 lf 1019,4 hPa 0,0 l/m 0 min 2 min 0 W/m 4,2 km/h (1 Bft)
20.06.2015 23:24 13,7 C 10,6 C 82 % 15 lf 1019,4 hPa 0,0 l/m 0 min 2 min 0 W/m 4,2 km/h (1 Bft)
20.06.2015 23:26 13,7 C 10,6 C 83 % 15 lf 1019,3 hPa 0,0 l/m 0 min 2 min 0 W/m 4,2 km/h (1 Bft)
20.06.2015 23:28 13,6 C 10,6 C 83 % 15 lf 1019,4 hPa 0,0 l/m 0 min 2 min 0 W/m 4,2 km/h (1 Bft)
20.06.2015 23:30 13,6 C 10,6 C 83 % 15 lf 1019,4 hPa 0,2 l/m 0 min 2 min 0 W/m 2,1 km/h (1 Bft)
20.06.2015 23:32 13,6 C 10,6 C 83 % 15 lf 1019,4 hPa 0,0 l/m 0 min 2 min 0 W/m 2,1 km/h (1 Bft)
20.06.2015 23:34 13,6 C 10,6 C 83 % 15 lf 1019,3 hPa 0,0 l/m 0 min 2 min 0 W/m 2,1 km/h (1 Bft)
20.06.2015 23:36 13,6 C 10,6 C 83 % 15 lf 1019,3 hPa 0,0 l/m 0 min 2 min 0 W/m 2,1 km/h (1 Bft)
20.06.2015 23:38 13,6 C 10,6 C 83 % 15 lf 1019,3 hPa 0,0 l/m 0 min 2 min 0 W/m 2,1 km/h (1 Bft)
20.06.2015 23:40 13,5 C 10,6 C 83 % 15 lf 1019,3 hPa 0,0 l/m 0 min 2 min 0 W/m 4,2 km/h (1 Bft)
20.06.2015 23:42 13,5 C 10,6 C 83 % 15 lf 1019,3 hPa 0,0 l/m 0 min 2 min 0 W/m 6,3 km/h (2 Bft)
20.06.2015 23:44 13,5 C 10,6 C 84 % 15 lf 1019,3 hPa 0,0 l/m 0 min 2 min 0 W/m 4,2 km/h (1 Bft)
20.06.2015 23:46 13,5 C 10,6 C 84 % 15 lf 1019,3 hPa 0,0 l/m 0 min 2 min 0 W/m 6,3 km/h (2 Bft)
20.06.2015 23:48 13,4 C 10,6 C 84 % 15 lf 1019,2 hPa 0,0 l/m 0 min 2 min 0 W/m 6,3 km/h (2 Bft)
20.06.2015 23:50 13,4 C 10,6 C 85 % 15 lf 1019,3 hPa 0,0 l/m 0 min 0 min 0 W/m 6,3 km/h (2 Bft)
20.06.2015 23:52 13,4 C 10,6 C 85 % 15 lf 1019,2 hPa 0,0 l/m 0 min 2 min 0 W/m 6,3 km/h (2 Bft)
20.06.2015 23:54 13,4 C 10,6 C 85 % 15 lf 1019,2 hPa 0,0 l/m 0 min 0 min 0 W/m 4,2 km/h (1 Bft)
20.06.2015 23:56 13,3 C 10,6 C 85 % 15 lf 1019,2 hPa 0,0 l/m 0 min 0 min 0 W/m 4,2 km/h (1 Bft)
20.06.2015 23:58 13,3 C 10,6 C 85 % 15 lf 1019,2 hPa 0,0 l/m 0 min 2 min 0 W/m 4,2 km/h (1 Bft)
_ Min-Zeit 04:34 03:42 14:18 08:46 02:24 - - - - 20:28
Minimum _ 9,9 C 8,9 C 64 % 0 lf 1018,6 hPa - - - - 0,0 km/h (0 Bft)
_ Max-Zeit 14:10 14:02 05:58 00:00 11:52 02:04 08:06 00:00 09:38 14:02
Maximum _ 16,4 C 16,7 C 97 % 15 lf 1020,6 hPa 0,6 l/m 2 min 2 min 868 W/m 20,9 km/h
N-NW (4 Bft)
Durchschnitt _ 13,3 C 11,9 C 83 % 6 lf 1019,7 hPa #2,0 l/m #2:00 h #2:24 h 190 W/m 8,7 km/h (2 Bft)
© 2015 W. Hausmann